Wetterdaten: Dienstag, 28.10.2014
Datum Zeit Temp. Aussen +5cm Feuchte Auss Luftdruck Regen Sonnenschein Regendauer Solar Windben
28.10.2014 00:00 8,6 C 7,2 C 95 % 1022,1 hPa 0,0 l/m 0 min 0 min 0 W/m 27,2 km/h (4 Bft)
28.10.2014 00:02 8,6 C 7,2 C 95 % 1022,0 hPa 0,0 l/m 0 min 0 min 0 W/m 18,8 km/h (3 Bft)
28.10.2014 00:05 8,6 C 7,2 C 95 % 1022,0 hPa 0,0 l/m 0 min 0 min 0 W/m 18,8 km/h (3 Bft)
28.10.2014 00:06 8,5 C 7,2 C 95 % 1022,0 hPa 0,0 l/m 0 min 0 min 0 W/m 25,1 km/h (4 Bft)
28.10.2014 00:08 8,5 C 7,2 C 95 % 1022,0 hPa 0,0 l/m 0 min 0 min 0 W/m 20,9 km/h (4 Bft)
28.10.2014 00:10 8,5 C 7,2 C 95 % 1022,0 hPa 0,0 l/m 0 min 0 min 0 W/m 25,1 km/h (4 Bft)
28.10.2014 00:12 8,5 C 7,2 C 95 % 1022,0 hPa 0,0 l/m 0 min 0 min 0 W/m 18,8 km/h (3 Bft)
28.10.2014 00:14 8,5 C 7,2 C 95 % 1022,0 hPa 0,0 l/m 0 min 0 min 0 W/m 16,7 km/h (3 Bft)
28.10.2014 00:16 8,4 C 7,2 C 95 % 1022,0 hPa 0,0 l/m 0 min 0 min 0 W/m 18,8 km/h (3 Bft)
28.10.2014 00:18 8,4 C 7,2 C 95 % 1021,9 hPa 0,0 l/m 0 min 0 min 0 W/m 12,6 km/h (3 Bft)
28.10.2014 00:20 8,4 C 7,2 C 95 % 1022,0 hPa 0,0 l/m 0 min 0 min 0 W/m 16,7 km/h (3 Bft)
28.10.2014 00:22 8,4 C 7,2 C 95 % 1021,9 hPa 0,0 l/m 0 min 0 min 0 W/m 16,7 km/h (3 Bft)
28.10.2014 00:24 8,4 C 7,2 C 95 % 1022,0 hPa 0,0 l/m 0 min 0 min 0 W/m 23,0 km/h (4 Bft)
28.10.2014 00:26 8,4 C 7,2 C 95 % 1022,0 hPa 0,0 l/m 0 min 0 min 0 W/m 18,8 km/h (3 Bft)
28.10.2014 00:28 8,4 C 7,2 C 95 % 1021,9 hPa 0,0 l/m 0 min 0 min 0 W/m 16,7 km/h (3 Bft)
28.10.2014 00:30 8,4 C 7,2 C 95 % 1021,9 hPa 0,0 l/m 0 min 0 min 0 W/m 18,8 km/h (3 Bft)
28.10.2014 00:32 8,3 C 7,2 C 95 % 1021,9 hPa 0,0 l/m 0 min 0 min 0 W/m 23,0 km/h (4 Bft)
28.10.2014 00:34 8,3 C 7,2 C 95 % 1021,9 hPa 0,0 l/m 0 min 0 min 0 W/m 16,7 km/h (3 Bft)
28.10.2014 00:36 8,3 C 7,2 C 95 % 1021,9 hPa 0,0 l/m 0 min 0 min 0 W/m 27,2 km/h (4 Bft)
28.10.2014 00:38 8,3 C 7,2 C 95 % 1021,8 hPa 0,0 l/m 0 min 0 min 0 W/m 18,8 km/h (3 Bft)
28.10.2014 00:40 8,3 C 7,2 C 95 % 1021,7 hPa 0,0 l/m 0 min 0 min 0 W/m 18,8 km/h (3 Bft)
28.10.2014 00:42 8,3 C 7,2 C 95 % 1021,8 hPa 0,0 l/m 0 min 0 min 0 W/m 18,8 km/h (3 Bft)
28.10.2014 00:44 8,3 C 7,2 C 95 % 1021,8 hPa 0,0 l/m 0 min 0 min 0 W/m 18,8 km/h (3 Bft)
28.10.2014 00:46 8,3 C 7,2 C 95 % 1021,8 hPa 0,0 l/m 0 min 0 min 0 W/m 14,6 km/h (3 Bft)
28.10.2014 00:48 8,2 C 7,2 C 95 % 1021,8 hPa 0,0 l/m 0 min 0 min 0 W/m 14,6 km/h (3 Bft)
28.10.2014 00:50 8,2 C 7,2 C 95 % 1021,8 hPa 0,0 l/m 0 min 0 min 0 W/m 20,9 km/h (4 Bft)
28.10.2014 00:52 8,2 C 6,7 C 95 % 1021,8 hPa 0,0 l/m 0 min 0 min 0 W/m 20,9 km/h (4 Bft)
28.10.2014 00:54 8,2 C 6,7 C 95 % 1021,7 hPa 0,0 l/m 0 min 0 min 0 W/m 16,7 km/h (3 Bft)
28.10.2014 00:56 8,2 C 6,7 C 95 % 1021,7 hPa 0,0 l/m 0 min 0 min 0 W/m 23,0 km/h (4 Bft)
28.10.2014 00:58 8,2 C 6,7 C 95 % 1021,6 hPa 0,0 l/m 0 min 0 min 0 W/m 16,7 km/h (3 Bft)
28.10.2014 01:00 8,2 C 6,7 C 95 % 1021,7 hPa 0,0 l/m 0 min 0 min 0 W/m 18,8 km/h (3 Bft)
28.10.2014 01:02 8,2 C 6,7 C 95 % 1021,7 hPa 0,0 l/m 0 min 0 min 0 W/m 18,8 km/h (3 Bft)
28.10.2014 01:04 8,2 C 6,7 C 95 % 1021,6 hPa 0,0 l/m 0 min 0 min 0 W/m 20,9 km/h (4 Bft)
28.10.2014 01:06 8,2 C 6,7 C 95 % 1021,6 hPa 0,0 l/m 0 min 0 min 0 W/m 18,8 km/h (3 Bft)
28.10.2014 01:08 8,1 C 6,7 C 95 % 1021,6 hPa 0,0 l/m 0 min 0 min 0 W/m 20,9 km/h (4 Bft)
28.10.2014 01:10 8,1 C 6,7 C 95 % 1021,6 hPa 0,0 l/m 0 min 0 min 0 W/m 18,8 km/h (3 Bft)
28.10.2014 01:12 8,1 C 6,7 C 95 % 1021,6 hPa 0,0 l/m 0 min 0 min 0 W/m 20,9 km/h (4 Bft)
28.10.2014 01:14 8,1 C 6,7 C 95 % 1021,6 hPa 0,0 l/m 0 min 0 min 0 W/m 25,1 km/h (4 Bft)
28.10.2014 01:16 8,1 C 6,7 C 95 % 1021,5 hPa 0,0 l/m 0 min 0 min 0 W/m 16,7 km/h (3 Bft)
28.10.2014 01:18 8,1 C 6,7 C 95 % 1021,6 hPa 0,0 l/m 0 min 0 min 0 W/m 23,0 km/h (4 Bft)
28.10.2014 01:20 8,1 C 6,7 C 95 % 1021,6 hPa 0,0 l/m 0 min 0 min 0 W/m 18,8 km/h (3 Bft)
28.10.2014 01:22 8,1 C 6,7 C 95 % 1021,5 hPa 0,0 l/m 0 min 0 min 0 W/m 16,7 km/h (3 Bft)
28.10.2014 01:24 8,1 C 6,7 C 95 % 1021,5 hPa 0,0 l/m 0 min 0 min 0 W/m 20,9 km/h (4 Bft)
28.10.2014 01:26 8,1 C 6,7 C 95 % 1021,5 hPa 0,0 l/m 0 min 0 min 0 W/m 16,7 km/h (3 Bft)
28.10.2014 01:28 8,0 C 6,7 C 95 % 1021,6 hPa 0,0 l/m 0 min 0 min 0 W/m 20,9 km/h (4 Bft)
28.10.2014 01:30 8,0 C 6,7 C 95 % 1021,6 hPa 0,0 l/m 0 min 0 min 0 W/m 18,8 km/h (3 Bft)
28.10.2014 01:32 8,0 C 6,7 C 95 % 1021,6 hPa 0,0 l/m 0 min 0 min 0 W/m 23,0 km/h (4 Bft)
28.10.2014 01:34 8,0 C 6,7 C 95 % 1021,5 hPa 0,0 l/m 0 min 0 min 0 W/m 18,8 km/h (3 Bft)
28.10.2014 01:36 8,0 C 6,7 C 95 % 1021,5 hPa 0,0 l/m 0 min 0 min 0 W/m 20,9 km/h (4 Bft)
28.10.2014 01:38 7,9 C 6,7 C 95 % 1021,5 hPa 0,0 l/m 0 min 0 min 0 W/m 18,8 km/h (3 Bft)
28.10.2014 01:40 7,9 C 6,7 C 95 % 1021,5 hPa 0,0 l/m 0 min 0 min 0 W/m 18,8 km/h (3 Bft)
28.10.2014 01:42 7,9 C 6,7 C 95 % 1021,5 hPa 0,0 l/m 0 min 0 min 0 W/m 20,9 km/h (4 Bft)
28.10.2014 01:44 7,9 C 6,7 C 95 % 1021,4 hPa 0,0 l/m 0 min 0 min 0 W/m 16,7 km/h (3 Bft)
28.10.2014 01:46 7,9 C 6,7 C 95 % 1021,5 hPa 0,0 l/m 0 min 0 min 0 W/m 16,7 km/h (3 Bft)
28.10.2014 01:48 7,9 C 6,7 C 95 % 1021,5 hPa 0,0 l/m 0 min 0 min 0 W/m 14,6 km/h (3 Bft)
28.10.2014 01:50 7,9 C 6,7 C 95 % 1021,5 hPa 0,0 l/m 0 min 0 min 0 W/m 16,7 km/h (3 Bft)
28.10.2014 01:52 7,9 C 6,7 C 95 % 1021,4 hPa 0,0 l/m 0 min 0 min 0 W/m 18,8 km/h (3 Bft)
28.10.2014 01:54 7,9 C 6,7 C 95 % 1021,4 hPa 0,0 l/m 0 min 0 min 0 W/m 20,9 km/h (4 Bft)
28.10.2014 01:56 7,8 C 6,7 C 95 % 1021,4 hPa 0,0 l/m 0 min 0 min 0 W/m 18,8 km/h (3 Bft)
28.10.2014 01:58 7,8 C 6,7 C 95 % 1021,4 hPa 0,0 l/m 0 min 0 min 0 W/m 23,0 km/h (4 Bft)
28.10.2014 02:00 7,8 C 6,7 C 95 % 1021,4 hPa 0,0 l/m 0 min 0 min 0 W/m 14,6 km/h (3 Bft)
28.10.2014 02:02 7,8 C 6,7 C 95 % 1021,4 hPa 0,0 l/m 0 min 0 min 0 W/m 16,7 km/h (3 Bft)
28.10.2014 02:04 7,8 C 6,7 C 95 % 1021,5 hPa 0,0 l/m 0 min 0 min 0 W/m 18,8 km/h (3 Bft)
28.10.2014 02:06 7,8 C 6,7 C 95 % 1021,5 hPa 0,0 l/m 0 min 0 min 0 W/m 25,1 km/h (4 Bft)
28.10.2014 02:08 7,8 C 6,7 C 95 % 1021,4 hPa 0,0 l/m 0 min 0 min 0 W/m 18,8 km/h (3 Bft)
28.10.2014 02:10 7,8 C 6,7 C 95 % 1021,4 hPa 0,0 l/m 0 min 0 min 0 W/m 16,7 km/h (3 Bft)
28.10.2014 02:12 7,8 C 6,7 C 95 % 1021,4 hPa 0,0 l/m 0 min 0 min 0 W/m 14,6 km/h (3 Bft)
28.10.2014 02:14 7,7 C 6,7 C 95 % 1021,4 hPa 0,0 l/m 0 min 0 min 0 W/m 18,8 km/h (3 Bft)
28.10.2014 02:16 7,7 C 6,7 C 95 % 1021,4 hPa 0,0 l/m 0 min 0 min 0 W/m 18,8 km/h (3 Bft)
28.10.2014 02:18 7,7 C 6,7 C 95 % 1021,3 hPa 0,0 l/m 0 min 0 min 0 W/m 12,6 km/h (3 Bft)
28.10.2014 02:20 7,7 C 6,7 C 95 % 1021,4 hPa 0,0 l/m 0 min 0 min 0 W/m 10,5 km/h (2 Bft)
28.10.2014 02:22 7,7 C 6,7 C 95 % 1021,4 hPa 0,0 l/m 0 min 0 min 0 W/m 16,7 km/h (3 Bft)
28.10.2014 02:24 7,7 C 6,7 C 95 % 1021,4 hPa 0,0 l/m 0 min 0 min 0 W/m 16,7 km/h (3 Bft)
28.10.2014 02:26 7,7 C 6,7 C 95 % 1021,4 hPa 0,0 l/m 0 min 0 min 0 W/m 14,6 km/h (3 Bft)
28.10.2014 02:28 7,7 C 6,1 C 95 % 1021,4 hPa 0,0 l/m 0 min 0 min 0 W/m 12,6 km/h (3 Bft)
28.10.2014 02:30 7,7 C 6,7 C 95 % 1021,3 hPa 0,0 l/m 0 min 0 min 0 W/m 14,6 km/h (3 Bft)
28.10.2014 02:32 7,7 C 6,1 C 95 % 1021,4 hPa 0,0 l/m 0 min 0 min 0 W/m 14,6 km/h (3 Bft)
28.10.2014 02:34 7,7 C 6,1 C 95 % 1021,3 hPa 0,0 l/m 0 min 0 min 0 W/m 16,7 km/h (3 Bft)
28.10.2014 02:36 7,6 C 6,1 C 95 % 1021,4 hPa 0,0 l/m 0 min 0 min 0 W/m 16,7 km/h (3 Bft)
28.10.2014 02:38 7,6 C 6,1 C 95 % 1021,4 hPa 0,0 l/m 0 min 0 min 0 W/m 14,6 km/h (3 Bft)
28.10.2014 02:40 7,6 C 6,1 C 95 % 1021,4 hPa 0,0 l/m 0 min 0 min 0 W/m 16,7 km/h (3 Bft)
28.10.2014 02:42 7,6 C 6,1 C 95 % 1021,3 hPa 0,0 l/m 0 min 0 min 0 W/m 12,6 km/h (3 Bft)
28.10.2014 02:44 7,6 C 6,1 C 95 % 1021,3 hPa 0,0 l/m 0 min 0 min 0 W/m 10,5 km/h (2 Bft)
28.10.2014 02:46 7,6 C 6,1 C 95 % 1021,3 hPa 0,0 l/m 0 min 0 min 0 W/m 18,8 km/h (3 Bft)
28.10.2014 02:48 7,6 C 6,1 C 95 % 1021,3 hPa 0,0 l/m 0 min 0 min 0 W/m 16,7 km/h (3 Bft)
28.10.2014 02:50 7,5 C 6,1 C 95 % 1021,3 hPa 0,0 l/m 0 min 0 min 0 W/m 14,6 km/h (3 Bft)
28.10.2014 02:52 7,5 C 6,1 C 95 % 1021,3 hPa 0,0 l/m 0 min 0 min 0 W/m 16,7 km/h (3 Bft)
28.10.2014 02:54 7,5 C 6,1 C 95 % 1021,3 hPa 0,0 l/m 0 min 0 min 0 W/m 12,6 km/h (3 Bft)
28.10.2014 02:56 7,5 C 6,1 C 95 % 1021,2 hPa 0,0 l/m 0 min 0 min 0 W/m 14,6 km/h (3 Bft)
28.10.2014 02:58 7,5 C 6,1 C 95 % 1021,3 hPa 0,0 l/m 0 min 0 min 0 W/m 16,7 km/h (3 Bft)
28.10.2014 03:00 7,4 C 6,1 C 95 % 1021,2 hPa 0,0 l/m 0 min 0 min 0 W/m 16,7 km/h (3 Bft)
28.10.2014 03:02 7,4 C 6,1 C 95 % 1021,2 hPa 0,0 l/m 0 min 0 min 0 W/m 16,7 km/h (3 Bft)
28.10.2014 03:04 7,4 C 6,1 C 95 % 1021,2 hPa 0,0 l/m 0 min 0 min 0 W/m 18,8 km/h (3 Bft)
28.10.2014 03:06 7,4 C 6,1 C 95 % 1021,2 hPa 0,0 l/m 0 min 0 min 0 W/m 14,6 km/h (3 Bft)
28.10.2014 03:08 7,4 C 6,1 C 95 % 1021,2 hPa 0,0 l/m 0 min 0 min 0 W/m 12,6 km/h (3 Bft)
28.10.2014 03:10 7,4 C 6,1 C 95 % 1021,2 hPa 0,0 l/m 0 min 0 min 0 W/m 16,7 km/h (3 Bft)
28.10.2014 03:12 7,4 C 6,1 C 95 % 1021,1 hPa 0,0 l/m 0 min 0 min 0 W/m 16,7 km/h (3 Bft)
28.10.2014 03:14 7,4 C 6,1 C 95 % 1021,1 hPa 0,0 l/m 0 min 0 min 0 W/m 18,8 km/h (3 Bft)
28.10.2014 03:16 7,4 C 6,1 C 95 % 1021,1 hPa 0,0 l/m 0 min 0 min 0 W/m 18,8 km/h (3 Bft)
28.10.2014 03:18 7,3 C 6,1 C 96 % 1021,2 hPa 0,0 l/m 0 min 0 min 0 W/m 18,8 km/h (3 Bft)
28.10.2014 03:20 7,3 C 6,1 C 96 % 1021,1 hPa 0,0 l/m 0 min 0 min 0 W/m 18,8 km/h (3 Bft)
28.10.2014 03:22 7,3 C 6,1 C 96 % 1021,1 hPa 0,0 l/m 0 min 0 min 0 W/m 23,0 km/h (4 Bft)
28.10.2014 03:24 7,3 C 6,1 C 96 % 1021,1 hPa 0,0 l/m 0 min 0 min 0 W/m 14,6 km/h (3 Bft)
28.10.2014 03:26 7,3 C 6,1 C 96 % 1021,1 hPa 0,0 l/m 0 min 0 min 0 W/m 16,7 km/h (3 Bft)
28.10.2014 03:28 7,3 C 6,1 C 96 % 1021,1 hPa 0,0 l/m 0 min 0 min 0 W/m 18,8 km/h (3 Bft)
28.10.2014 03:30 7,3 C 6,1 C 96 % 1021,1 hPa 0,0 l/m 0 min 0 min 0 W/m 23,0 km/h (4 Bft)
28.10.2014 03:32 7,3 C 6,1 C 96 % 1021,1 hPa 0,0 l/m 0 min 0 min 0 W/m 14,6 km/h (3 Bft)
28.10.2014 03:34 7,2 C 6,1 C 96 % 1021,1 hPa 0,0 l/m 0 min 0 min 0 W/m 18,8 km/h (3 Bft)
28.10.2014 03:36 7,2 C 6,1 C 95 % 1021,1 hPa 0,0 l/m 0 min 0 min 0 W/m 14,6 km/h (3 Bft)
28.10.2014 03:38 7,2 C 6,1 C 95 % 1021,0 hPa 0,0 l/m 0 min 0 min 0 W/m 16,7 km/h (3 Bft)
28.10.2014 03:40 7,2 C 6,1 C 95 % 1021,0 hPa 0,0 l/m 0 min 0 min 0 W/m 18,8 km/h (3 Bft)
28.10.2014 03:42 7,2 C 6,1 C 95 % 1021,0 hPa 0,0 l/m 0 min 0 min 0 W/m 16,7 km/h (3 Bft)
28.10.2014 03:44 7,2 C 6,1 C 95 % 1021,0 hPa 0,0 l/m 0 min 0 min 0 W/m 18,8 km/h (3 Bft)
28.10.2014 03:46 7,2 C 5,6 C 96 % 1021,0 hPa 0,0 l/m 0 min 0 min 0 W/m 20,9 km/h (4 Bft)
28.10.2014 03:48 7,1 C 5,6 C 96 % 1021,0 hPa 0,0 l/m 0 min 0 min 0 W/m 18,8 km/h (3 Bft)
28.10.2014 03:50 7,1 C 5,6 C 96 % 1021,0 hPa 0,0 l/m 0 min 0 min 0 W/m 16,7 km/h (3 Bft)
28.10.2014 03:52 7,1 C 5,6 C 96 % 1020,9 hPa 0,0 l/m 0 min 0 min 0 W/m 18,8 km/h (3 Bft)
28.10.2014 03:54 7,1 C 5,6 C 96 % 1020,9 hPa 0,0 l/m 0 min 0 min 0 W/m 16,7 km/h (3 Bft)
28.10.2014 03:56 7,1 C 5,6 C 96 % 1020,9 hPa 0,0 l/m 0 min 0 min 0 W/m 16,7 km/h (3 Bft)
28.10.2014 03:58 7,1 C 5,6 C 96 % 1020,9 hPa 0,0 l/m 0 min 0 min 0 W/m 18,8 km/h (3 Bft)
28.10.2014 04:00 7,1 C 5,6 C 96 % 1020,8 hPa 0,0 l/m 0 min 0 min 0 W/m 23,0 km/h (4 Bft)
28.10.2014 04:05 7,1 C 5,6 C 96 % 1020,8 hPa 0,0 l/m 0 min 0 min 0 W/m 18,8 km/h (3 Bft)
28.10.2014 04:06 7,1 C 5,6 C 96 % 1020,8 hPa 0,0 l/m 0 min 0 min 0 W/m 14,6 km/h (3 Bft)
28.10.2014 04:08 7,1 C 5,6 C 96 % 1020,8 hPa 0,0 l/m 0 min 0 min 0 W/m 16,7 km/h (3 Bft)
28.10.2014 04:10 7,1 C 5,6 C 96 % 1020,8 hPa 0,0 l/m 0 min 0 min 0 W/m 18,8 km/h (3 Bft)
28.10.2014 04:12 7,0 C 5,6 C 96 % 1020,8 hPa 0,0 l/m 0 min 0 min 0 W/m 12,6 km/h (3 Bft)
28.10.2014 04:14 7,0 C 5,6 C 96 % 1020,7 hPa 0,0 l/m 0 min 0 min 0 W/m 18,8 km/h (3 Bft)
28.10.2014 04:16 7,0 C 5,6 C 96 % 1020,8 hPa 0,0 l/m 0 min 0 min 0 W/m 23,0 km/h (4 Bft)
28.10.2014 04:18 7,0 C 5,6 C 96 % 1020,8 hPa 0,0 l/m 0 min 0 min 0 W/m 16,7 km/h (3 Bft)
28.10.2014 04:20 7,0 C 5,6 C 96 % 1020,8 hPa 0,0 l/m 0 min 0 min 0 W/m 18,8 km/h (3 Bft)
28.10.2014 04:22 6,9 C 5,6 C 96 % 1020,7 hPa 0,0 l/m 0 min 0 min 0 W/m 16,7 km/h (3 Bft)
28.10.2014 04:24 6,9 C 5,6 C 96 % 1020,8 hPa 0,0 l/m 0 min 0 min 0 W/m 14,6 km/h (3 Bft)
28.10.2014 04:26 6,9 C 5,6 C 96 % 1020,7 hPa 0,0 l/m 0 min 0 min 0 W/m 16,7 km/h (3 Bft)
28.10.2014 04:28 6,9 C 5,6 C 96 % 1020,7 hPa 0,0 l/m 0 min 0 min 0 W/m 16,7 km/h (3 Bft)
28.10.2014 04:30 6,9 C 5,6 C 96 % 1020,8 hPa 0,0 l/m 0 min 0 min 0 W/m 14,6 km/h (3 Bft)
28.10.2014 04:32 6,9 C 5,6 C 96 % 1020,7 hPa 0,0 l/m 0 min 0 min 0 W/m 23,0 km/h (4 Bft)
28.10.2014 04:34 6,9 C 5,6 C 96 % 1020,7 hPa 0,0 l/m 0 min 0 min 0 W/m 20,9 km/h (4 Bft)
28.10.2014 04:36 6,9 C 5,6 C 96 % 1020,7 hPa 0,0 l/m 0 min 0 min 0 W/m 18,8 km/h (3 Bft)
28.10.2014 04:38 6,9 C 5,6 C 96 % 1020,7 hPa 0,0 l/m 0 min 0 min 0 W/m 23,0 km/h (4 Bft)
28.10.2014 04:40 6,9 C 5,6 C 96 % 1020,7 hPa 0,0 l/m 0 min 0 min 0 W/m 18,8 km/h (3 Bft)
28.10.2014 04:42 6,9 C 5,6 C 96 % 1020,8 hPa 0,0 l/m 0 min 0 min 0 W/m 18,8 km/h (3 Bft)
28.10.2014 04:44 6,9 C 5,6 C 96 % 1020,7 hPa 0,0 l/m 0 min 0 min 0 W/m 18,8 km/h (3 Bft)
28.10.2014 04:46 6,9 C 5,6 C 96 % 1020,8 hPa 0,2 l/m 0 min 0 min 0 W/m 14,6 km/h (3 Bft)
28.10.2014 04:48 6,8 C 5,6 C 96 % 1020,8 hPa 0,0 l/m 0 min 0 min 0 W/m 16,7 km/h (3 Bft)
28.10.2014 04:50 6,8 C 5,6 C 96 % 1020,8 hPa 0,0 l/m 0 min 0 min 0 W/m 14,6 km/h (3 Bft)
28.10.2014 04:52 6,8 C 5,6 C 96 % 1020,8 hPa 0,0 l/m 0 min 0 min 0 W/m 14,6 km/h (3 Bft)
28.10.2014 04:54 6,8 C 5,6 C 96 % 1020,8 hPa 0,0 l/m 0 min 0 min 0 W/m 14,6 km/h (3 Bft)
28.10.2014 04:56 6,8 C 5,6 C 96 % 1020,8 hPa 0,0 l/m 0 min 0 min 0 W/m 14,6 km/h (3 Bft)
28.10.2014 04:58 6,8 C 5,6 C 96 % 1020,8 hPa 0,0 l/m 0 min 0 min 0 W/m 18,8 km/h (3 Bft)
28.10.2014 05:00 6,8 C 5,6 C 96 % 1020,8 hPa 0,0 l/m 0 min 0 min 0 W/m 16,7 km/h (3 Bft)
28.10.2014 05:02 6,8 C 5,6 C 96 % 1020,8 hPa 0,0 l/m 0 min 0 min 0 W/m 16,7 km/h (3 Bft)
28.10.2014 05:04 6,8 C 5,6 C 96 % 1020,8 hPa 0,0 l/m 0 min 0 min 0 W/m 14,6 km/h (3 Bft)
28.10.2014 05:06 6,8 C 5,6 C 96 % 1020,7 hPa 0,0 l/m 0 min 0 min 0 W/m 16,7 km/h (3 Bft)
28.10.2014 05:08 6,8 C 5,6 C 96 % 1020,7 hPa 0,0 l/m 0 min 0 min 0 W/m 14,6 km/h (3 Bft)
28.10.2014 05:10 6,8 C 5,6 C 96 % 1020,7 hPa 0,0 l/m 0 min 0 min 0 W/m 18,8 km/h (3 Bft)
28.10.2014 05:12 6,8 C 5,6 C 96 % 1020,7 hPa 0,0 l/m 0 min 0 min 0 W/m 16,7 km/h (3 Bft)
28.10.2014 05:14 6,8 C 5,6 C 96 % 1020,8 hPa 0,0 l/m 0 min 0 min 0 W/m 18,8 km/h (3 Bft)
28.10.2014 05:16 6,8 C 5,6 C 96 % 1020,7 hPa 0,0 l/m 0 min 0 min 0 W/m 18,8 km/h (3 Bft)
28.10.2014 05:18 6,8 C 5,6 C 96 % 1020,7 hPa 0,0 l/m 0 min 0 min 0 W/m 16,7 km/h (3 Bft)
28.10.2014 05:20 6,8 C 5,6 C 96 % 1020,6 hPa 0,0 l/m 0 min 0 min 0 W/m 14,6 km/h (3 Bft)
28.10.2014 05:22 6,8 C 5,6 C 96 % 1020,6 hPa 0,0 l/m 0 min 0 min 0 W/m 18,8 km/h (3 Bft)
28.10.2014 05:24 6,8 C 5,6 C 96 % 1020,7 hPa 0,0 l/m 0 min 0 min 0 W/m 20,9 km/h (4 Bft)
28.10.2014 05:26 6,8 C 5,6 C 96 % 1020,7 hPa 0,0 l/m 0 min 0 min 0 W/m 18,8 km/h (3 Bft)
28.10.2014 05:28 6,8 C 5,6 C 96 % 1020,6 hPa 0,0 l/m 0 min 0 min 0 W/m 18,8 km/h (3 Bft)
28.10.2014 05:30 6,8 C 5,6 C 96 % 1020,6 hPa 0,0 l/m 0 min 0 min 0 W/m 16,7 km/h (3 Bft)
28.10.2014 05:32 6,8 C 5,6 C 96 % 1020,6 hPa 0,0 l/m 0 min 0 min 0 W/m 18,8 km/h (3 Bft)
28.10.2014 05:34 6,9 C 5,6 C 96 % 1020,6 hPa 0,0 l/m 0 min 0 min 0 W/m 20,9 km/h (4 Bft)
28.10.2014 05:36 6,9 C 5,6 C 96 % 1020,5 hPa 0,0 l/m 0 min 0 min 0 W/m 23,0 km/h (4 Bft)
28.10.2014 05:38 6,9 C 5,6 C 96 % 1020,5 hPa 0,0 l/m 0 min 0 min 0 W/m 20,9 km/h (4 Bft)
28.10.2014 05:40 6,9 C 5,6 C 96 % 1020,5 hPa 0,0 l/m 0 min 0 min 0 W/m 20,9 km/h (4 Bft)
28.10.2014 05:42 6,9 C 5,6 C 96 % 1020,5 hPa 0,0 l/m 0 min 0 min 0 W/m 18,8 km/h (3 Bft)
28.10.2014 05:44 6,9 C 6,1 C 96 % 1020,5 hPa 0,0 l/m 0 min 0 min 0 W/m 27,2 km/h (4 Bft)
28.10.2014 05:46 6,9 C 6,1 C 96 % 1020,4 hPa 0,0 l/m 0 min 0 min 0 W/m 23,0 km/h (4 Bft)
28.10.2014 05:48 6,9 C 6,1 C 96 % 1020,4 hPa 0,0 l/m 0 min 0 min 0 W/m 18,8 km/h (3 Bft)
28.10.2014 05:50 7,0 C 6,1 C 96 % 1020,4 hPa 0,0 l/m 0 min 0 min 0 W/m 20,9 km/h (4 Bft)
28.10.2014 05:52 7,0 C 6,1 C 96 % 1020,4 hPa 0,0 l/m 0 min 0 min 0 W/m 27,2 km/h (4 Bft)
28.10.2014 05:54 7,0 C 6,1 C 96 % 1020,4 hPa 0,0 l/m 0 min 0 min 0 W/m 29,3 km/h (5 Bft)
28.10.2014 05:56 7,0 C 6,1 C 96 % 1020,4 hPa 0,0 l/m 0 min 0 min 0 W/m 25,1 km/h (4 Bft)
28.10.2014 05:58 7,1 C 6,1 C 96 % 1020,4 hPa 0,0 l/m 0 min 0 min 0 W/m 20,9 km/h (4 Bft)
28.10.2014 06:00 7,1 C 6,1 C 96 % 1020,4 hPa 0,0 l/m 0 min 0 min 0 W/m 23,0 km/h (4 Bft)
28.10.2014 06:02 7,1 C 6,1 C 96 % 1020,4 hPa 0,0 l/m 0 min 0 min 0 W/m 31,4 km/h (5 Bft)
28.10.2014 06:05 7,1 C 6,1 C 96 % 1020,4 hPa 0,0 l/m 0 min 0 min 0 W/m 25,1 km/h (4 Bft)
28.10.2014 06:06 7,1 C 6,1 C 96 % 1020,4 hPa 0,0 l/m 0 min 0 min 0 W/m 20,9 km/h (4 Bft)
28.10.2014 06:08 7,1 C 6,1 C 96 % 1020,3 hPa 0,0 l/m 0 min 0 min 0 W/m 23,0 km/h (4 Bft)
28.10.2014 06:10 7,1 C 6,1 C 96 % 1020,3 hPa 0,0 l/m 0 min 0 min 0 W/m 20,9 km/h (4 Bft)
28.10.2014 06:12 7,1 C 6,1 C 96 % 1020,3 hPa 0,0 l/m 0 min 0 min 0 W/m 23,0 km/h (4 Bft)
28.10.2014 06:14 7,1 C 6,1 C 96 % 1020,3 hPa 0,0 l/m 0 min 0 min 0 W/m 23,0 km/h (4 Bft)
28.10.2014 06:16 7,1 C 6,1 C 96 % 1020,3 hPa 0,0 l/m 0 min 0 min 0 W/m 29,3 km/h (5 Bft)
28.10.2014 06:18 7,1 C 6,1 C 96 % 1020,3 hPa 0,0 l/m 0 min 0 min 0 W/m 20,9 km/h (4 Bft)
28.10.2014 06:20 7,1 C 6,1 C 96 % 1020,3 hPa 0,0 l/m 0 min 0 min 0 W/m 25,1 km/h (4 Bft)
28.10.2014 06:22 7,1 C 6,1 C 96 % 1020,3 hPa 0,0 l/m 0 min 0 min 0 W/m 29,3 km/h (5 Bft)
28.10.2014 06:24 7,1 C 6,1 C 96 % 1020,3 hPa 0,0 l/m 0 min 0 min 0 W/m 25,1 km/h (4 Bft)
28.10.2014 06:26 7,1 C 6,1 C 96 % 1020,3 hPa 0,0 l/m 0 min 0 min 0 W/m 23,0 km/h (4 Bft)
28.10.2014 06:28 7,1 C 6,1 C 96 % 1020,3 hPa 0,0 l/m 0 min 0 min 0 W/m 23,0 km/h (4 Bft)
28.10.2014 06:30 7,1 C 6,1 C 96 % 1020,3 hPa 0,0 l/m 0 min 0 min 0 W/m 20,9 km/h (4 Bft)
28.10.2014 06:32 7,0 C 6,1 C 96 % 1020,3 hPa 0,0 l/m 0 min 0 min 0 W/m 20,9 km/h (4 Bft)
28.10.2014 06:34 7,0 C 5,6 C 96 % 1020,3 hPa 0,0 l/m 0 min 0 min 0 W/m 20,9 km/h (4 Bft)
28.10.2014 06:36 7,0 C 5,6 C 96 % 1020,3 hPa 0,0 l/m 0 min 0 min 0 W/m 23,0 km/h (4 Bft)
28.10.2014 06:38 7,0 C 5,6 C 96 % 1020,3 hPa 0,0 l/m 0 min 0 min 0 W/m 14,6 km/h (3 Bft)
28.10.2014 06:40 7,0 C 5,6 C 96 % 1020,3 hPa 0,0 l/m 0 min 0 min 0 W/m 18,8 km/h (3 Bft)
28.10.2014 06:42 6,9 C 5,6 C 96 % 1020,2 hPa 0,0 l/m 0 min 0 min 0 W/m 18,8 km/h (3 Bft)
28.10.2014 06:44 6,9 C 5,6 C 96 % 1020,3 hPa 0,0 l/m 0 min 0 min 0 W/m 18,8 km/h (3 Bft)
28.10.2014 06:46 6,9 C 5,6 C 96 % 1020,3 hPa 0,0 l/m 0 min 0 min 0 W/m 23,0 km/h (4 Bft)
28.10.2014 06:48 6,9 C 5,6 C 96 % 1020,3 hPa 0,0 l/m 0 min 0 min 0 W/m 20,9 km/h (4 Bft)
28.10.2014 06:50 6,9 C 5,6 C 96 % 1020,3 hPa 0,0 l/m 0 min 0 min 0 W/m 20,9 km/h (4 Bft)
28.10.2014 06:52 6,9 C 5,6 C 96 % 1020,3 hPa 0,0 l/m 0 min 0 min 0 W/m 16,7 km/h (3 Bft)
28.10.2014 06:54 6,9 C 5,6 C 96 % 1020,3 hPa 0,0 l/m 0 min 0 min 0 W/m 25,1 km/h (4 Bft)
28.10.2014 06:56 6,9 C 5,6 C 96 % 1020,3 hPa 0,0 l/m 0 min 0 min 0 W/m 16,7 km/h (3 Bft)
28.10.2014 06:58 6,9 C 5,6 C 96 % 1020,3 hPa 0,0 l/m 0 min 0 min 0 W/m 10,5 km/h (2 Bft)
28.10.2014 07:00 6,8 C 5,6 C 96 % 1020,3 hPa 0,0 l/m 0 min 0 min 0 W/m 20,9 km/h (4 Bft)
28.10.2014 07:02 6,8 C 5,6 C 96 % 1020,3 hPa 0,0 l/m 0 min 0 min 0 W/m 27,2 km/h (4 Bft)
28.10.2014 07:04 6,8 C 5,6 C 96 % 1020,3 hPa 0,0 l/m 0 min 0 min 0 W/m 23,0 km/h (4 Bft)
28.10.2014 07:06 6,8 C 5,6 C 96 % 1020,3 hPa 0,0 l/m 0 min 0 min 0 W/m 18,8 km/h (3 Bft)
28.10.2014 07:08 6,8 C 5,6 C 96 % 1020,3 hPa 0,0 l/m 0 min 0 min 1 W/m 10,5 km/h (2 Bft)
28.10.2014 07:10 6,8 C 5,6 C 96 % 1020,3 hPa 0,0 l/m 0 min 0 min 5 W/m 20,9 km/h (4 Bft)
28.10.2014 07:12 6,8 C 5,6 C 96 % 1020,3 hPa 0,0 l/m 0 min 0 min 5 W/m 27,2 km/h (4 Bft)
28.10.2014 07:14 6,8 C 5,6 C 96 % 1020,3 hPa 0,0 l/m 0 min 0 min 5 W/m 16,7 km/h (3 Bft)
28.10.2014 07:16 6,8 C 5,6 C 96 % 1020,2 hPa 0,0 l/m 0 min 0 min 5 W/m 25,1 km/h (4 Bft)
28.10.2014 07:18 6,8 C 5,6 C 96 % 1020,3 hPa 0,0 l/m 0 min 0 min 5 W/m 18,8 km/h (3 Bft)
28.10.2014 07:20 6,8 C 5,6 C 96 % 1020,3 hPa 0,0 l/m 0 min 0 min 6 W/m 20,9 km/h (4 Bft)
28.10.2014 07:22 6,7 C 5,6 C 96 % 1020,3 hPa 0,0 l/m 0 min 0 min 7 W/m 18,8 km/h (3 Bft)
28.10.2014 07:24 6,7 C 5,6 C 96 % 1020,3 hPa 0,0 l/m 0 min 0 min 8 W/m 23,0 km/h (4 Bft)
28.10.2014 07:26 6,7 C 5,6 C 96 % 1020,3 hPa 0,0 l/m 0 min 0 min 10 W/m 23,0 km/h (4 Bft)
28.10.2014 07:28 6,7 C 5,6 C 96 % 1020,3 hPa 0,0 l/m 0 min 0 min 11 W/m 23,0 km/h (4 Bft)
28.10.2014 07:30 6,7 C 5,6 C 96 % 1020,3 hPa 0,0 l/m 0 min 0 min 12 W/m 18,8 km/h (3 Bft)
28.10.2014 07:32 6,7 C 5,6 C 96 % 1020,3 hPa 0,0 l/m 2 min 0 min 13 W/m 14,6 km/h (3 Bft)
28.10.2014 07:34 6,7 C 5,6 C 96 % 1020,3 hPa 0,0 l/m 2 min 0 min 16 W/m 27,2 km/h (4 Bft)
28.10.2014 07:36 6,7 C 5,6 C 96 % 1020,3 hPa 0,0 l/m 2 min 0 min 18 W/m 29,3 km/h (5 Bft)
28.10.2014 07:38 6,7 C 5,6 C 96 % 1020,3 hPa 0,0 l/m 2 min 0 min 18 W/m 27,2 km/h (4 Bft)
28.10.2014 07:40 6,7 C 5,6 C 96 % 1020,3 hPa 0,0 l/m 0 min 0 min 18 W/m 23,0 km/h (4 Bft)
28.10.2014 07:42 6,7 C 5,6 C 96 % 1020,3 hPa 0,0 l/m 0 min 0 min 19 W/m 29,3 km/h (5 Bft)
28.10.2014 07:44 6,7 C 5,6 C 95 % 1020,3 hPa 0,0 l/m 0 min 0 min 21 W/m 23,0 km/h (4 Bft)
28.10.2014 07:46 6,7 C 5,6 C 95 % 1020,3 hPa 0,0 l/m 0 min 0 min 21 W/m 27,2 km/h (4 Bft)
28.10.2014 07:48 6,7 C 5,6 C 95 % 1020,3 hPa 0,0 l/m 0 min 0 min 23 W/m 20,9 km/h (4 Bft)
28.10.2014 07:50 6,7 C 5,6 C 95 % 1020,3 hPa 0,0 l/m 0 min 0 min 29 W/m 20,9 km/h (4 Bft)
28.10.2014 07:52 6,7 C 5,6 C 95 % 1020,3 hPa 0,0 l/m 2 min 0 min 37 W/m 18,8 km/h (3 Bft)
28.10.2014 07:54 6,7 C 5,6 C 95 % 1020,3 hPa 0,0 l/m 2 min 0 min 42 W/m 33,5 km/h (5 Bft)
28.10.2014 07:56 6,7 C 5,6 C 95 % 1020,3 hPa 0,0 l/m 2 min 0 min 44 W/m 27,2 km/h (4 Bft)
28.10.2014 07:58 6,7 C 5,6 C 95 % 1020,3 hPa 0,0 l/m 2 min 0 min 47 W/m 25,1 km/h (4 Bft)
28.10.2014 08:00 6,7 C 5,6 C 95 % 1020,3 hPa 0,0 l/m 2 min 0 min 53 W/m 16,7 km/h (3 Bft)
28.10.2014 08:02 6,7 C 5,6 C 95 % 1020,3 hPa 0,0 l/m 2 min 0 min 56 W/m 25,1 km/h (4 Bft)
28.10.2014 08:04 6,7 C 5,6 C 95 % 1020,3 hPa 0,0 l/m 2 min 0 min 56 W/m 20,9 km/h (4 Bft)
28.10.2014 08:06 6,7 C 5,6 C 95 % 1020,3 hPa 0,0 l/m 2 min 0 min 58 W/m 23,0 km/h (4 Bft)
28.10.2014 08:08 6,7 C 5,6 C 95 % 1020,3 hPa 0,0 l/m 0 min 0 min 57 W/m 29,3 km/h (5 Bft)
28.10.2014 08:10 6,7 C 5,6 C 95 % 1020,2 hPa 0,0 l/m 2 min 0 min 65 W/m 18,8 km/h (3 Bft)
28.10.2014 08:12 6,7 C 5,6 C 95 % 1020,2 hPa 0,0 l/m 2 min 0 min 78 W/m 25,1 km/h (4 Bft)
28.10.2014 08:14 6,7 C 6,1 C 95 % 1020,3 hPa 0,0 l/m 2 min 0 min 88 W/m 18,8 km/h (3 Bft)
28.10.2014 08:16 6,7 C 6,1 C 95 % 1020,2 hPa 0,0 l/m 2 min 0 min 91 W/m 25,1 km/h (4 Bft)
28.10.2014 08:18 6,7 C 6,1 C 95 % 1020,3 hPa 0,0 l/m 2 min 0 min 91 W/m 25,1 km/h (4 Bft)
28.10.2014 08:20 6,8 C 6,1 C 95 % 1020,2 hPa 0,0 l/m 2 min 0 min 86 W/m 18,8 km/h (3 Bft)
28.10.2014 08:22 6,8 C 6,1 C 95 % 1020,3 hPa 0,0 l/m 2 min 0 min 84 W/m 37,7 km/h (5 Bft)
28.10.2014 08:24 6,8 C 6,1 C 95 % 1020,3 hPa 0,0 l/m 2 min 0 min 89 W/m 23,0 km/h (4 Bft)
28.10.2014 08:26 6,8 C 6,1 C 95 % 1020,2 hPa 0,0 l/m 2 min 0 min 93 W/m 20,9 km/h (4 Bft)
28.10.2014 08:28 6,8 C 6,1 C 95 % 1020,3 hPa 0,0 l/m 2 min 0 min 95 W/m 23,0 km/h (4 Bft)
28.10.2014 08:30 6,8 C 6,1 C 95 % 1020,3 hPa 0,0 l/m 2 min 0 min 100 W/m 25,1 km/h (4 Bft)
28.10.2014 08:32 6,8 C 6,1 C 95 % 1020,3 hPa 0,0 l/m 2 min 0 min 105 W/m 18,8 km/h (3 Bft)
28.10.2014 08:34 6,9 C 6,1 C 95 % 1020,3 hPa 0,0 l/m 2 min 0 min 105 W/m 23,0 km/h (4 Bft)
28.10.2014 08:36 6,9 C 6,1 C 95 % 1020,2 hPa 0,0 l/m 2 min 0 min 106 W/m 25,1 km/h (4 Bft)
28.10.2014 08:38 6,9 C 6,1 C 95 % 1020,2 hPa 0,0 l/m 2 min 0 min 112 W/m 18,8 km/h (3 Bft)
28.10.2014 08:40 6,9 C 6,1 C 95 % 1020,2 hPa 0,0 l/m 2 min 0 min 121 W/m 25,1 km/h (4 Bft)
28.10.2014 08:42 6,9 C 6,1 C 95 % 1020,2 hPa 0,0 l/m 2 min 0 min 129 W/m 23,0 km/h (4 Bft)
28.10.2014 08:44 7,0 C 6,1 C 94 % 1020,2 hPa 0,0 l/m 2 min 0 min 137 W/m 27,2 km/h (4 Bft)
28.10.2014 08:46 7,0 C 6,1 C 94 % 1020,2 hPa 0,0 l/m 2 min 0 min 139 W/m 31,4 km/h (5 Bft)
28.10.2014 08:48 7,1 C 6,1 C 95 % 1020,2 hPa 0,0 l/m 2 min 0 min 142 W/m 27,2 km/h (4 Bft)
28.10.2014 08:50 7,1 C 6,7 C 94 % 1020,2 hPa 0,0 l/m 2 min 0 min 146 W/m 23,0 km/h (4 Bft)
28.10.2014 08:52 7,1 C 6,7 C 94 % 1020,3 hPa 0,0 l/m 2 min 0 min 150 W/m 27,2 km/h (4 Bft)
28.10.2014 08:54 7,2 C 6,7 C 94 % 1020,3 hPa 0,0 l/m 2 min 0 min 152 W/m 31,4 km/h (5 Bft)
28.10.2014 08:56 7,2 C 6,7 C 94 % 1020,3 hPa 0,0 l/m 2 min 0 min 148 W/m 25,1 km/h (4 Bft)
28.10.2014 08:58 7,2 C 6,7 C 94 % 1020,2 hPa 0,0 l/m 2 min 0 min 144 W/m 23,0 km/h (4 Bft)
28.10.2014 09:00 7,3 C 6,7 C 94 % 1020,3 hPa 0,0 l/m 2 min 0 min 145 W/m 25,1 km/h (4 Bft)
28.10.2014 09:02 7,3 C 6,7 C 94 % 1020,3 hPa 0,0 l/m 2 min 0 min 158 W/m 29,3 km/h (5 Bft)
28.10.2014 09:04 7,3 C 6,7 C 94 % 1020,2 hPa 0,0 l/m 2 min 0 min 168 W/m 33,5 km/h (5 Bft)
28.10.2014 09:06 7,4 C 6,7 C 94 % 1020,2 hPa 0,0 l/m 2 min 0 min 176 W/m 25,1 km/h (4 Bft)
28.10.2014 09:08 7,4 C 6,7 C 94 % 1020,2 hPa 0,0 l/m 2 min 0 min 184 W/m 25,1 km/h (4 Bft)
28.10.2014 09:10 7,5 C 6,7 C 94 % 1020,2 hPa 0,0 l/m 2 min 0 min 191 W/m 27,2 km/h (4 Bft)
28.10.2014 09:12 7,6 C 6,7 C 93 % 1020,2 hPa 0,0 l/m 2 min 0 min 199 W/m 29,3 km/h (5 Bft)
28.10.2014 09:14 7,6 C 6,7 C 94 % 1020,2 hPa 0,0 l/m 2 min 0 min 204 W/m 23,0 km/h (4 Bft)
28.10.2014 09:16 7,7 C 6,7 C 93 % 1020,2 hPa 0,0 l/m 2 min 0 min 208 W/m 31,4 km/h (5 Bft)
28.10.2014 09:18 7,7 C 6,7 C 93 % 1020,1 hPa 0,0 l/m 2 min 0 min 205 W/m 20,9 km/h (4 Bft)
28.10.2014 09:20 7,8 C 6,7 C 93 % 1020,2 hPa 0,0 l/m 2 min 0 min 201 W/m 29,3 km/h (5 Bft)
28.10.2014 09:22 7,8 C 6,7 C 93 % 1020,2 hPa 0,0 l/m 2 min 0 min 191 W/m 23,0 km/h (4 Bft)
28.10.2014 09:24 7,9 C 6,7 C 93 % 1020,1 hPa 0,0 l/m 2 min 0 min 185 W/m 20,9 km/h (4 Bft)
28.10.2014 09:26 7,9 C 6,7 C 92 % 1020,1 hPa 0,0 l/m 2 min 0 min 184 W/m 18,8 km/h (3 Bft)
28.10.2014 09:28 8,0 C 7,2 C 92 % 1020,1 hPa 0,0 l/m 2 min 0 min 187 W/m 25,1 km/h (4 Bft)
28.10.2014 09:30 8,0 C 7,2 C 92 % 1020,2 hPa 0,0 l/m 2 min 0 min 199 W/m 23,0 km/h (4 Bft)
28.10.2014 09:32 8,1 C 7,2 C 92 % 1020,1 hPa 0,0 l/m 2 min 0 min 205 W/m 35,6 km/h (5 Bft)
28.10.2014 09:34 8,1 C 7,2 C 92 % 1020,2 hPa 0,0 l/m 2 min 0 min 207 W/m 25,1 km/h (4 Bft)
28.10.2014 09:36 8,2 C 7,2 C 91 % 1020,1 hPa 0,0 l/m 2 min 0 min 209 W/m 27,2 km/h (4 Bft)
28.10.2014 09:38 8,2 C 7,2 C 91 % 1020,2 hPa 0,0 l/m 2 min 0 min 209 W/m 25,1 km/h (4 Bft)
28.10.2014 09:40 8,2 C 7,2 C 91 % 1020,1 hPa 0,0 l/m 2 min 0 min 216 W/m 35,6 km/h (5 Bft)
28.10.2014 09:42 8,2 C 7,2 C 91 % 1020,1 hPa 0,0 l/m 2 min 0 min 220 W/m 31,4 km/h (5 Bft)
28.10.2014 09:44 8,3 C 7,2 C 91 % 1020,1 hPa 0,0 l/m 2 min 0 min 224 W/m 31,4 km/h (5 Bft)
28.10.2014 09:46 8,3 C 7,2 C 90 % 1020,1 hPa 0,0 l/m 2 min 0 min 228 W/m 25,1 km/h (4 Bft)
28.10.2014 09:48 8,4 C 7,2 C 90 % 1020,1 hPa 0,0 l/m 2 min 0 min 238 W/m 27,2 km/h (4 Bft)
28.10.2014 09:50 8,4 C 7,2 C 90 % 1020,1 hPa 0,0 l/m 2 min 0 min 250 W/m 27,2 km/h (4 Bft)
28.10.2014 09:52 8,4 C 7,2 C 90 % 1020,1 hPa 0,0 l/m 2 min 0 min 267 W/m 31,4 km/h (5 Bft)
28.10.2014 09:54 8,5 C 7,2 C 90 % 1020,0 hPa 0,0 l/m 2 min 0 min 277 W/m 20,9 km/h (4 Bft)
28.10.2014 09:56 8,6 C 7,8 C 90 % 1020,0 hPa 0,0 l/m 2 min 0 min 293 W/m 25,1 km/h (4 Bft)
28.10.2014 09:58 8,7 C 7,8 C 90 % 1020,0 hPa 0,0 l/m 2 min 0 min 297 W/m 31,4 km/h (5 Bft)
28.10.2014 10:00 8,7 C 7,8 C 90 % 1019,9 hPa 0,0 l/m 2 min 0 min 264 W/m 31,4 km/h (5 Bft)
28.10.2014 10:02 8,7 C 7,8 C 89 % 1019,9 hPa 0,0 l/m 2 min 0 min 239 W/m 29,3 km/h (5 Bft)
28.10.2014 10:04 8,8 C 7,8 C 89 % 1020,0 hPa 0,0 l/m 2 min 0 min 255 W/m 25,1 km/h (4 Bft)
28.10.2014 10:06 8,8 C 7,8 C 89 % 1020,0 hPa 0,0 l/m 2 min 0 min 260 W/m 27,2 km/h (4 Bft)
28.10.2014 10:08 8,8 C 7,8 C 89 % 1019,9 hPa 0,0 l/m 2 min 0 min 278 W/m 23,0 km/h (4 Bft)
28.10.2014 10:10 8,9 C 7,8 C 89 % 1019,9 hPa 0,0 l/m 2 min 0 min 286 W/m 29,3 km/h (5 Bft)
28.10.2014 10:12 8,9 C 7,8 C 89 % 1020,0 hPa 0,0 l/m 2 min 0 min 275 W/m 37,7 km/h (5 Bft)
28.10.2014 10:14 8,9 C 7,8 C 88 % 1019,9 hPa 0,0 l/m 2 min 0 min 258 W/m 31,4 km/h (5 Bft)
28.10.2014 10:16 9,0 C 7,8 C 88 % 1019,9 hPa 0,0 l/m 2 min 0 min 275 W/m 37,7 km/h (5 Bft)
28.10.2014 10:18 9,0 C 7,8 C 88 % 1019,9 hPa 0,0 l/m 2 min 0 min 279 W/m 29,3 km/h (5 Bft)
28.10.2014 10:20 9,0 C 7,8 C 88 % 1019,9 hPa 0,0 l/m 2 min 0 min 240 W/m 27,2 km/h (4 Bft)
28.10.2014 10:22 9,1 C 7,8 C 88 % 1019,9 hPa 0,0 l/m 2 min 0 min 257 W/m 27,2 km/h (4 Bft)
28.10.2014 10:24 9,1 C 7,8 C 88 % 1019,9 hPa 0,0 l/m 2 min 0 min 271 W/m 23,0 km/h (4 Bft)
28.10.2014 10:26 9,1 C 7,8 C 88 % 1019,9 hPa 0,0 l/m 2 min 0 min 295 W/m 25,1 km/h (4 Bft)
28.10.2014 10:28 9,2 C 7,8 C 88 % 1019,8 hPa 0,0 l/m 2 min 0 min 328 W/m 25,1 km/h (4 Bft)
28.10.2014 10:30 9,2 C 7,8 C 87 % 1019,9 hPa 0,0 l/m 2 min 0 min 341 W/m 18,8 km/h (3 Bft)
28.10.2014 10:32 9,3 C 8,3 C 87 % 1019,9 hPa 0,0 l/m 2 min 0 min 306 W/m 25,1 km/h (4 Bft)
28.10.2014 10:34 9,3 C 8,3 C 87 % 1019,8 hPa 0,0 l/m 2 min 0 min 322 W/m 23,0 km/h (4 Bft)
28.10.2014 10:36 9,3 C 8,3 C 87 % 1019,8 hPa 0,0 l/m 2 min 0 min 354 W/m 20,9 km/h (4 Bft)
28.10.2014 10:38 9,4 C 8,3 C 87 % 1019,8 hPa 0,0 l/m 2 min 0 min 373 W/m 37,7 km/h (5 Bft)
28.10.2014 10:40 9,4 C 8,3 C 87 % 1019,7 hPa 0,0 l/m 2 min 0 min 395 W/m 29,3 km/h (5 Bft)
28.10.2014 10:42 9,6 C 8,9 C 87 % 1019,7 hPa 0,0 l/m 2 min 0 min 404 W/m 31,4 km/h (5 Bft)
28.10.2014 10:44 9,6 C 8,9 C 87 % 1019,7 hPa 0,0 l/m 2 min 0 min 409 W/m 20,9 km/h (4 Bft)
28.10.2014 10:46 9,7 C 8,9 C 87 % 1019,6 hPa 0,0 l/m 2 min 0 min 415 W/m 33,5 km/h (5 Bft)
28.10.2014 10:48 9,8 C 8,9 C 86 % 1019,7 hPa 0,0 l/m 2 min 0 min 418 W/m 25,1 km/h (4 Bft)
28.10.2014 10:50 9,9 C 8,9 C 86 % 1019,7 hPa 0,0 l/m 2 min 0 min 428 W/m 25,1 km/h (4 Bft)
28.10.2014 10:52 9,9 C 8,9 C 86 % 1019,7 hPa 0,0 l/m 2 min 0 min 412 W/m 29,3 km/h (5 Bft)
28.10.2014 10:54 10,1 C 8,9 C 86 % 1019,6 hPa 0,0 l/m 2 min 0 min 370 W/m 18,8 km/h (3 Bft)
28.10.2014 10:56 10,1 C 8,9 C 86 % 1019,6 hPa 0,0 l/m 2 min 0 min 349 W/m 16,7 km/h (3 Bft)
28.10.2014 10:58 10,2 C 8,9 C 85 % 1019,6 hPa 0,0 l/m 2 min 0 min 360 W/m 25,1 km/h (4 Bft)
28.10.2014 11:00 10,2 C 8,9 C 85 % 1019,5 hPa 0,0 l/m 2 min 0 min 347 W/m 29,3 km/h (5 Bft)
28.10.2014 11:02 10,2 C 8,9 C 84 % 1019,5 hPa 0,0 l/m 2 min 0 min 324 W/m 29,3 km/h (5 Bft)
28.10.2014 11:04 10,2 C 8,9 C 84 % 1019,5 hPa 0,0 l/m 2 min 0 min 303 W/m 37,7 km/h (5 Bft)
28.10.2014 11:06 10,2 C 8,9 C 84 % 1019,5 hPa 0,0 l/m 2 min 0 min 326 W/m 25,1 km/h (4 Bft)
28.10.2014 11:08 10,2 C 8,9 C 83 % 1019,5 hPa 0,0 l/m 2 min 0 min 331 W/m 29,3 km/h (5 Bft)
28.10.2014 11:10 10,2 C 8,9 C 84 % 1019,5 hPa 0,0 l/m 2 min 0 min 341 W/m 18,8 km/h (3 Bft)
28.10.2014 11:12 10,2 C 8,9 C 84 % 1019,5 hPa 0,0 l/m 2 min 0 min 345 W/m 33,5 km/h (5 Bft)
28.10.2014 11:14 10,2 C 8,9 C 84 % 1019,5 hPa 0,0 l/m 2 min 0 min 342 W/m 16,7 km/h (3 Bft)
28.10.2014 11:16 10,2 C 8,9 C 84 % 1019,5 hPa 0,0 l/m 2 min 0 min 340 W/m 25,1 km/h (4 Bft)
28.10.2014 11:18 10,3 C 8,9 C 84 % 1019,5 hPa 0,0 l/m 2 min 0 min 352 W/m 20,9 km/h (4 Bft)
28.10.2014 11:20 10,3 C 8,9 C 84 % 1019,5 hPa 0,0 l/m 2 min 0 min 361 W/m 29,3 km/h (5 Bft)
28.10.2014 11:22 10,3 C 8,9 C 84 % 1019,5 hPa 0,0 l/m 2 min 0 min 367 W/m 27,2 km/h (4 Bft)
28.10.2014 11:24 10,3 C 9,4 C 84 % 1019,4 hPa 0,0 l/m 2 min 0 min 357 W/m 20,9 km/h (4 Bft)
28.10.2014 11:26 10,4 C 8,9 C 84 % 1019,4 hPa 0,0 l/m 2 min 0 min 352 W/m 31,4 km/h (5 Bft)
28.10.2014 11:28 10,4 C 9,4 C 83 % 1019,3 hPa 0,0 l/m 2 min 0 min 357 W/m 20,9 km/h (4 Bft)
28.10.2014 11:30 10,4 C 9,4 C 83 % 1019,3 hPa 0,0 l/m 2 min 0 min 361 W/m 27,2 km/h (4 Bft)
28.10.2014 11:32 10,4 C 9,4 C 83 % 1019,3 hPa 0,0 l/m 2 min 0 min 348 W/m 23,0 km/h (4 Bft)
28.10.2014 11:34 10,4 C 9,4 C 83 % 1019,2 hPa 0,0 l/m 2 min 0 min 335 W/m 27,2 km/h (4 Bft)
28.10.2014 11:36 10,5 C 9,4 C 83 % 1019,2 hPa 0,0 l/m 2 min 0 min 345 W/m 29,3 km/h (5 Bft)
28.10.2014 11:38 10,5 C 9,4 C 83 % 1019,2 hPa 0,0 l/m 2 min 0 min 372 W/m 25,1 km/h (4 Bft)
28.10.2014 11:40 10,6 C 9,4 C 83 % 1019,1 hPa 0,0 l/m 2 min 0 min 383 W/m 23,0 km/h (4 Bft)
28.10.2014 11:42 10,6 C 9,4 C 83 % 1019,1 hPa 0,0 l/m 2 min 0 min 383 W/m 31,4 km/h (5 Bft)
28.10.2014 11:44 10,6 C 9,4 C 83 % 1019,0 hPa 0,0 l/m 2 min 0 min 382 W/m 27,2 km/h (4 Bft)
28.10.2014 11:46 10,6 C 9,4 C 83 % 1019,0 hPa 0,0 l/m 2 min 0 min 379 W/m 18,8 km/h (3 Bft)
28.10.2014 11:48 10,7 C 9,4 C 83 % 1019,0 hPa 0,0 l/m 2 min 0 min 360 W/m 25,1 km/h (4 Bft)
28.10.2014 11:50 10,8 C 10,0 C 83 % 1019,0 hPa 0,0 l/m 2 min 0 min 396 W/m 29,3 km/h (5 Bft)
28.10.2014 11:52 10,8 C 10,0 C 83 % 1019,0 hPa 0,0 l/m 2 min 0 min 430 W/m 23,0 km/h (4 Bft)
28.10.2014 11:54 10,8 C 10,0 C 83 % 1018,9 hPa 0,0 l/m 2 min 0 min 420 W/m 25,1 km/h (4 Bft)
28.10.2014 11:56 10,9 C 10,0 C 82 % 1018,9 hPa 0,0 l/m 2 min 0 min 414 W/m 23,0 km/h (4 Bft)
28.10.2014 11:58 10,9 C 10,0 C 82 % 1018,9 hPa 0,0 l/m 2 min 0 min 423 W/m 23,0 km/h (4 Bft)
28.10.2014 12:00 11,0 C 10,0 C 82 % 1018,8 hPa 0,0 l/m 2 min 0 min 435 W/m 31,4 km/h (5 Bft)
28.10.2014 12:02 11,1 C 10,0 C 82 % 1018,8 hPa 0,0 l/m 2 min 0 min 443 W/m 25,1 km/h (4 Bft)
28.10.2014 12:05 11,1 C 10,0 C 82 % 1018,7 hPa 0,0 l/m 2 min 0 min 448 W/m 23,0 km/h (4 Bft)
28.10.2014 12:06 11,2 C 10,0 C 82 % 1018,7 hPa 0,0 l/m 1 min 0 min 447 W/m 31,4 km/h (5 Bft)
28.10.2014 12:08 11,2 C 10,0 C 81 % 1018,7 hPa 0,0 l/m 2 min 0 min 438 W/m 35,6 km/h (5 Bft)
28.10.2014 12:10 11,3 C 10,0 C 81 % 1018,6 hPa 0,0 l/m 2 min 0 min 452 W/m 33,5 km/h (5 Bft)
28.10.2014 12:12 11,3 C 10,0 C 80 % 1018,6 hPa 0,0 l/m 2 min 0 min 444 W/m 31,4 km/h (5 Bft)
28.10.2014 12:14 11,3 C 10,6 C 80 % 1018,6 hPa 0,0 l/m 2 min 0 min 457 W/m 23,0 km/h (4 Bft)
28.10.2014 12:16 11,4 C 10,6 C 80 % 1018,6 hPa 0,0 l/m 2 min 0 min 442 W/m 27,2 km/h (4 Bft)
28.10.2014 12:18 11,4 C 10,0 C 80 % 1018,6 hPa 0,0 l/m 2 min 0 min 417 W/m 29,3 km/h (5 Bft)
28.10.2014 12:20 11,5 C 10,0 C 80 % 1018,5 hPa 0,0 l/m 2 min 0 min 432 W/m 29,3 km/h (5 Bft)
28.10.2014 12:22 11,5 C 10,0 C 79 % 1018,5 hPa 0,0 l/m 2 min 0 min 450 W/m 29,3 km/h (5 Bft)
28.10.2014 12:24 11,6 C 10,6 C 79 % 1018,5 hPa 0,0 l/m 2 min 0 min 456 W/m 29,3 km/h (5 Bft)
28.10.2014 12:26 11,6 C 10,6 C 79 % 1018,5 hPa 0,0 l/m 2 min 0 min 466 W/m 31,4 km/h (5 Bft)
28.10.2014 12:28 11,6 C 10,6 C 79 % 1018,5 hPa 0,0 l/m 2 min 0 min 471 W/m 20,9 km/h (4 Bft)
28.10.2014 12:30 11,6 C 10,6 C 79 % 1018,5 hPa 0,0 l/m 2 min 0 min 463 W/m 23,0 km/h (4 Bft)
28.10.2014 12:32 11,7 C 10,6 C 79 % 1018,4 hPa 0,0 l/m 2 min 0 min 468 W/m 27,2 km/h (4 Bft)
28.10.2014 12:34 11,7 C 10,6 C 79 % 1018,5 hPa 0,0 l/m 2 min 0 min 481 W/m 31,4 km/h (5 Bft)
28.10.2014 12:36 11,8 C 10,6 C 79 % 1018,4 hPa 0,0 l/m 2 min 0 min 482 W/m 31,4 km/h (5 Bft)
28.10.2014 12:38 11,8 C 10,6 C 78 % 1018,4 hPa 0,0 l/m 2 min 0 min 482 W/m 27,2 km/h (4 Bft)
28.10.2014 12:40 11,8 C 10,6 C 78 % 1018,3 hPa 0,0 l/m 2 min 0 min 467 W/m 29,3 km/h (5 Bft)
28.10.2014 12:42 11,8 C 10,6 C 78 % 1018,3 hPa 0,0 l/m 2 min 0 min 452 W/m 23,0 km/h (4 Bft)
28.10.2014 12:44 11,8 C 10,6 C 78 % 1018,3 hPa 0,0 l/m 2 min 0 min 474 W/m 25,1 km/h (4 Bft)
28.10.2014 12:46 11,9 C 10,6 C 78 % 1018,3 hPa 0,0 l/m 2 min 0 min 416 W/m 27,2 km/h (4 Bft)
28.10.2014 12:48 11,9 C 10,6 C 78 % 1018,3 hPa 0,0 l/m 2 min 0 min 396 W/m 27,2 km/h (4 Bft)
28.10.2014 12:50 11,9 C 10,6 C 78 % 1018,2 hPa 0,0 l/m 2 min 0 min 413 W/m 35,6 km/h (5 Bft)
28.10.2014 12:52 11,9 C 10,6 C 78 % 1018,2 hPa 0,0 l/m 2 min 0 min 395 W/m 25,1 km/h (4 Bft)
28.10.2014 12:54 11,9 C 10,6 C 77 % 1018,2 hPa 0,0 l/m 2 min 0 min 388 W/m 25,1 km/h (4 Bft)
28.10.2014 12:56 11,9 C 10,6 C 78 % 1018,1 hPa 0,0 l/m 2 min 0 min 402 W/m 33,5 km/h (5 Bft)
28.10.2014 12:58 11,9 C 10,6 C 77 % 1018,1 hPa 0,0 l/m 2 min 0 min 411 W/m 29,3 km/h (5 Bft)
28.10.2014 13:00 11,9 C 10,6 C 77 % 1018,1 hPa 0,0 l/m 2 min 0 min 398 W/m 29,3 km/h (5 Bft)
28.10.2014 13:02 11,9 C 10,6 C 77 % 1018,1 hPa 0,0 l/m 2 min 0 min 396 W/m 18,8 km/h (3 Bft)
28.10.2014 13:04 11,9 C 10,6 C 77 % 1018,0 hPa 0,0 l/m 2 min 0 min 352 W/m 25,1 km/h (4 Bft)
28.10.2014 13:06 11,9 C 10,6 C 77 % 1018,0 hPa 0,0 l/m 2 min 0 min 321 W/m 31,4 km/h (5 Bft)
28.10.2014 13:08 11,9 C 10,6 C 77 % 1018,1 hPa 0,0 l/m 2 min 0 min 319 W/m 29,3 km/h (5 Bft)
28.10.2014 13:10 11,9 C 10,6 C 77 % 1018,0 hPa 0,0 l/m 2 min 0 min 315 W/m 25,1 km/h (4 Bft)
28.10.2014 13:12 11,9 C 10,6 C 77 % 1018,1 hPa 0,0 l/m 2 min 0 min 327 W/m 23,0 km/h (4 Bft)
28.10.2014 13:14 11,9 C 10,6 C 77 % 1018,0 hPa 0,0 l/m 2 min 0 min 332 W/m 18,8 km/h (3 Bft)
28.10.2014 13:16 11,9 C 10,6 C 77 % 1018,0 hPa 0,0 l/m 2 min 0 min 333 W/m 31,4 km/h (5 Bft)
28.10.2014 13:18 11,9 C 10,6 C 77 % 1018,0 hPa 0,0 l/m 2 min 0 min 353 W/m 25,1 km/h (4 Bft)
28.10.2014 13:20 11,9 C 10,6 C 77 % 1017,9 hPa 0,0 l/m 2 min 0 min 358 W/m 27,2 km/h (4 Bft)
28.10.2014 13:22 11,9 C 10,6 C 77 % 1017,9 hPa 0,0 l/m 2 min 0 min 371 W/m 25,1 km/h (4 Bft)
28.10.2014 13:24 11,9 C 11,1 C 77 % 1017,8 hPa 0,0 l/m 2 min 0 min 385 W/m 25,1 km/h (4 Bft)
28.10.2014 13:26 11,9 C 11,1 C 77 % 1017,8 hPa 0,0 l/m 2 min 0 min 388 W/m 31,4 km/h (5 Bft)
28.10.2014 13:28 11,9 C 11,1 C 77 % 1017,8 hPa 0,0 l/m 2 min 0 min 392 W/m 39,7 km/h (6 Bft)
28.10.2014 13:30 12,0 C 11,1 C 77 % 1017,8 hPa 0,0 l/m 2 min 0 min 391 W/m 20,9 km/h (4 Bft)
28.10.2014 13:32 12,1 C 11,1 C 77 % 1017,6 hPa 0,0 l/m 2 min 0 min 406 W/m 29,3 km/h (5 Bft)
28.10.2014 13:34 12,1 C 11,1 C 76 % 1017,6 hPa 0,0 l/m 2 min 0 min 425 W/m 27,2 km/h (4 Bft)
28.10.2014 13:36 12,1 C 11,1 C 77 % 1017,6 hPa 0,0 l/m 2 min 0 min 434 W/m 23,0 km/h (4 Bft)
28.10.2014 13:38 12,2 C 11,1 C 76 % 1017,5 hPa 0,0 l/m 2 min 0 min 426 W/m 27,2 km/h (4 Bft)
28.10.2014 13:40 12,2 C 11,7 C 76 % 1017,5 hPa 0,0 l/m 2 min 0 min 427 W/m 20,9 km/h (4 Bft)
28.10.2014 13:42 12,3 C 11,7 C 76 % 1017,5 hPa 0,0 l/m 2 min 0 min 428 W/m 18,8 km/h (3 Bft)
28.10.2014 13:44 12,4 C 11,7 C 76 % 1017,5 hPa 0,0 l/m 2 min 0 min 427 W/m 23,0 km/h (4 Bft)
28.10.2014 13:46 12,4 C 11,7 C 76 % 1017,5 hPa 0,0 l/m 2 min 0 min 426 W/m 27,2 km/h (4 Bft)
28.10.2014 13:48 12,5 C 11,7 C 76 % 1017,5 hPa 0,0 l/m 2 min 0 min 429 W/m 23,0 km/h (4 Bft)
28.10.2014 13:50 12,6 C 11,7 C 75 % 1017,4 hPa 0,0 l/m 2 min 0 min 420 W/m 29,3 km/h (5 Bft)
28.10.2014 13:52 12,6 C 11,7 C 75 % 1017,5 hPa 0,0 l/m 2 min 0 min 415 W/m 33,5 km/h (5 Bft)
28.10.2014 13:54 12,7 C 11,7 C 75 % 1017,5 hPa 0,0 l/m 2 min 0 min 408 W/m 29,3 km/h (5 Bft)
28.10.2014 13:56 12,7 C 11,1 C 75 % 1017,5 hPa 0,0 l/m 2 min 0 min 403 W/m 31,4 km/h (5 Bft)
28.10.2014 13:58 12,7 C 11,1 C 75 % 1017,4 hPa 0,0 l/m 2 min 0 min 396 W/m 33,5 km/h (5 Bft)
28.10.2014 14:00 12,7 C 11,1 C 75 % 1017,4 hPa 0,0 l/m 2 min 0 min 397 W/m 27,2 km/h (4 Bft)
28.10.2014 14:02 12,7 C 11,1 C 75 % 1017,4 hPa 0,0 l/m 2 min 0 min 393 W/m 27,2 km/h (4 Bft)
28.10.2014 14:04 12,7 C 11,1 C 75 % 1017,4 hPa 0,0 l/m 2 min 0 min 384 W/m 25,1 km/h (4 Bft)
28.10.2014 14:06 12,7 C 11,1 C 75 % 1017,3 hPa 0,0 l/m 2 min 0 min 386 W/m 27,2 km/h (4 Bft)
28.10.2014 14:08 12,7 C 11,1 C 74 % 1017,3 hPa 0,0 l/m 2 min 0 min 380 W/m 25,1 km/h (4 Bft)
28.10.2014 14:10 12,7 C 11,1 C 74 % 1017,3 hPa 0,0 l/m 2 min 0 min 378 W/m 27,2 km/h (4 Bft)
28.10.2014 14:12 12,7 C 11,1 C 74 % 1017,3 hPa 0,0 l/m 2 min 0 min 373 W/m 23,0 km/h (4 Bft)
28.10.2014 14:14 12,7 C 11,1 C 74 % 1017,2 hPa 0,0 l/m 2 min 0 min 369 W/m 25,1 km/h (4 Bft)
28.10.2014 14:16 12,7 C 11,1 C 74 % 1017,3 hPa 0,0 l/m 2 min 0 min 362 W/m 25,1 km/h (4 Bft)
28.10.2014 14:18 12,7 C 11,1 C 74 % 1017,2 hPa 0,0 l/m 2 min 0 min 358 W/m 25,1 km/h (4 Bft)
28.10.2014 14:20 12,7 C 11,1 C 74 % 1017,3 hPa 0,0 l/m 2 min 0 min 353 W/m 35,6 km/h (5 Bft)
28.10.2014 14:22 12,7 C 11,1 C 74 % 1017,3 hPa 0,0 l/m 2 min 0 min 350 W/m 31,4 km/h (5 Bft)
28.10.2014 14:24 12,7 C 11,1 C 74 % 1017,3 hPa 0,0 l/m 2 min 0 min 345 W/m 31,4 km/h (5 Bft)
28.10.2014 14:26 12,7 C 11,1 C 74 % 1017,2 hPa 0,0 l/m 2 min 0 min 341 W/m 27,2 km/h (4 Bft)
28.10.2014 14:28 12,7 C 11,1 C 74 % 1017,2 hPa 0,0 l/m 2 min 0 min 336 W/m 16,7 km/h (3 Bft)
28.10.2014 14:30 12,7 C 11,1 C 74 % 1017,2 hPa 0,0 l/m 2 min 0 min 332 W/m 29,3 km/h (5 Bft)
28.10.2014 14:32 12,7 C 11,1 C 74 % 1017,3 hPa 0,0 l/m 2 min 0 min 305 W/m 25,1 km/h (4 Bft)
28.10.2014 14:34 12,7 C 11,1 C 74 % 1017,2 hPa 0,0 l/m 2 min 0 min 320 W/m 27,2 km/h (4 Bft)
28.10.2014 14:36 12,7 C 11,1 C 74 % 1017,2 hPa 0,0 l/m 2 min 0 min 323 W/m 31,4 km/h (5 Bft)
28.10.2014 14:38 12,7 C 11,1 C 74 % 1017,2 hPa 0,0 l/m 2 min 0 min 320 W/m 33,5 km/h (5 Bft)
28.10.2014 14:40 12,7 C 11,1 C 74 % 1017,1 hPa 0,0 l/m 2 min 0 min 313 W/m 25,1 km/h (4 Bft)
28.10.2014 14:42 12,7 C 11,1 C 74 % 1017,2 hPa 0,0 l/m 2 min 0 min 301 W/m 27,2 km/h (4 Bft)
28.10.2014 14:44 12,6 C 10,6 C 74 % 1017,2 hPa 0,0 l/m 2 min 0 min 296 W/m 20,9 km/h (4 Bft)
28.10.2014 14:46 12,6 C 10,6 C 74 % 1017,1 hPa 0,0 l/m 2 min 0 min 289 W/m 27,2 km/h (4 Bft)
28.10.2014 14:48 12,6 C 10,6 C 74 % 1017,1 hPa 0,0 l/m 2 min 0 min 283 W/m 27,2 km/h (4 Bft)
28.10.2014 14:50 12,5 C 10,6 C 74 % 1017,1 hPa 0,0 l/m 2 min 0 min 277 W/m 27,2 km/h (4 Bft)
28.10.2014 14:52 12,5 C 10,6 C 74 % 1017,1 hPa 0,0 l/m 2 min 0 min 272 W/m 23,0 km/h (4 Bft)
28.10.2014 14:54 12,4 C 10,6 C 74 % 1017,1 hPa 0,0 l/m 2 min 0 min 267 W/m 23,0 km/h (4 Bft)
28.10.2014 14:56 12,4 C 10,6 C 74 % 1017,1 hPa 0,0 l/m 2 min 0 min 267 W/m 20,9 km/h (4 Bft)
28.10.2014 14:58 12,3 C 10,6 C 75 % 1017,0 hPa 0,0 l/m 2 min 0 min 263 W/m 18,8 km/h (3 Bft)
28.10.2014 15:00 12,3 C 10,6 C 75 % 1016,9 hPa 0,0 l/m 2 min 0 min 262 W/m 23,0 km/h (4 Bft)
28.10.2014 15:02 12,3 C 10,6 C 75 % 1016,9 hPa 0,0 l/m 2 min 0 min 256 W/m 25,1 km/h (4 Bft)
28.10.2014 15:04 12,3 C 10,6 C 75 % 1016,8 hPa 0,0 l/m 2 min 0 min 249 W/m 25,1 km/h (4 Bft)
28.10.2014 15:06 12,3 C 10,6 C 75 % 1016,8 hPa 0,0 l/m 2 min 0 min 247 W/m 27,2 km/h (4 Bft)
28.10.2014 15:08 12,2 C 10,6 C 75 % 1016,8 hPa 0,0 l/m 2 min 0 min 246 W/m 16,7 km/h (3 Bft)
28.10.2014 15:10 12,2 C 10,6 C 75 % 1016,8 hPa 0,0 l/m 2 min 0 min 241 W/m 35,6 km/h (5 Bft)
28.10.2014 15:12 12,2 C 10,6 C 75 % 1016,8 hPa 0,0 l/m 2 min 0 min 234 W/m 23,0 km/h (4 Bft)
28.10.2014 15:14 12,2 C 10,6 C 75 % 1016,8 hPa 0,0 l/m 2 min 0 min 227 W/m 20,9 km/h (4 Bft)
28.10.2014 15:16 12,2 C 10,6 C 75 % 1016,8 hPa 0,0 l/m 2 min 0 min 220 W/m 33,5 km/h (5 Bft)
28.10.2014 15:18 12,2 C 10,6 C 75 % 1016,7 hPa 0,0 l/m 2 min 0 min 215 W/m 29,3 km/h (5 Bft)
28.10.2014 15:20 12,1 C 10,6 C 75 % 1016,7 hPa 0,0 l/m 2 min 0 min 209 W/m 25,1 km/h (4 Bft)
28.10.2014 15:22 12,1 C 10,0 C 75 % 1016,7 hPa 0,0 l/m 2 min 0 min 199 W/m 25,1 km/h (4 Bft)
28.10.2014 15:24 12,1 C 10,0 C 75 % 1016,7 hPa 0,0 l/m 2 min 0 min 190 W/m 25,1 km/h (4 Bft)
28.10.2014 15:26 12,0 C 10,0 C 75 % 1016,7 hPa 0,0 l/m 2 min 0 min 181 W/m 27,2 km/h (4 Bft)
28.10.2014 15:28 12,0 C 10,0 C 75 % 1016,7 hPa 0,0 l/m 2 min 0 min 174 W/m 27,2 km/h (4 Bft)
28.10.2014 15:30 11,9 C 10,0 C 76 % 1016,7 hPa 0,0 l/m 2 min 0 min 162 W/m 20,9 km/h (4 Bft)
28.10.2014 15:32 11,9 C 10,0 C 76 % 1016,7 hPa 0,0 l/m 2 min 0 min 149 W/m 25,1 km/h (4 Bft)
28.10.2014 15:34 11,9 C 10,0 C 76 % 1016,7 hPa 0,0 l/m 2 min 0 min 137 W/m 20,9 km/h (4 Bft)
28.10.2014 15:36 11,8 C 10,0 C 76 % 1016,6 hPa 0,0 l/m 2 min 0 min 135 W/m 23,0 km/h (4 Bft)
28.10.2014 15:38 11,8 C 10,0 C 76 % 1016,6 hPa 0,0 l/m 2 min 0 min 135 W/m 25,1 km/h (4 Bft)
28.10.2014 15:40 11,7 C 10,0 C 76 % 1016,7 hPa 0,0 l/m 2 min 0 min 131 W/m 23,0 km/h (4 Bft)
28.10.2014 15:42 11,6 C 9,4 C 76 % 1016,6 hPa 0,0 l/m 2 min 0 min 119 W/m 18,8 km/h (3 Bft)
28.10.2014 15:44 11,6 C 9,4 C 77 % 1016,6 hPa 0,0 l/m 0 min 0 min 110 W/m 25,1 km/h (4 Bft)
28.10.2014 15:46 11,5 C 9,4 C 77 % 1016,5 hPa 0,0 l/m 0 min 0 min 100 W/m 29,3 km/h (5 Bft)
28.10.2014 15:48 11,4 C 9,4 C 76 % 1016,6 hPa 0,0 l/m 0 min 0 min 91 W/m 23,0 km/h (4 Bft)
28.10.2014 15:50 11,3 C 9,4 C 77 % 1016,6 hPa 0,0 l/m 0 min 0 min 86 W/m 25,1 km/h (4 Bft)
28.10.2014 15:52 11,3 C 9,4 C 77 % 1016,5 hPa 0,0 l/m 0 min 0 min 82 W/m 29,3 km/h (5 Bft)
28.10.2014 15:54 11,2 C 9,4 C 77 % 1016,5 hPa 0,0 l/m 0 min 0 min 78 W/m 23,0 km/h (4 Bft)
28.10.2014 15:56 11,1 C 9,4 C 77 % 1016,5 hPa 0,0 l/m 0 min 0 min 75 W/m 27,2 km/h (4 Bft)
28.10.2014 15:58 11,1 C 9,4 C 78 % 1016,5 hPa 0,0 l/m 0 min 0 min 72 W/m 20,9 km/h (4 Bft)
28.10.2014 16:00 11,0 C 9,4 C 78 % 1016,6 hPa 0,0 l/m 0 min 0 min 80 W/m 27,2 km/h (4 Bft)
28.10.2014 16:02 10,9 C 8,9 C 78 % 1016,5 hPa 0,0 l/m 0 min 0 min 86 W/m 25,1 km/h (4 Bft)
28.10.2014 16:04 10,9 C 8,9 C 78 % 1016,5 hPa 0,0 l/m 2 min 0 min 91 W/m 23,0 km/h (4 Bft)
28.10.2014 16:06 10,8 C 8,9 C 78 % 1016,5 hPa 0,0 l/m 2 min 0 min 91 W/m 31,4 km/h (5 Bft)
28.10.2014 16:08 10,7 C 8,9 C 78 % 1016,4 hPa 0,0 l/m 2 min 0 min 88 W/m 27,2 km/h (4 Bft)
28.10.2014 16:10 10,7 C 8,9 C 78 % 1016,5 hPa 0,0 l/m 2 min 0 min 85 W/m 33,5 km/h (5 Bft)
28.10.2014 16:12 10,6 C 8,9 C 78 % 1016,5 hPa 0,0 l/m 2 min 0 min 81 W/m 23,0 km/h (4 Bft)
28.10.2014 16:14 10,6 C 8,9 C 79 % 1016,5 hPa 0,0 l/m 0 min 0 min 73 W/m 23,0 km/h (4 Bft)
28.10.2014 16:16 10,5 C 8,9 C 79 % 1016,4 hPa 0,0 l/m 0 min 0 min 63 W/m 25,1 km/h (4 Bft)
28.10.2014 16:18 10,4 C 8,9 C 79 % 1016,5 hPa 0,0 l/m 0 min 0 min 54 W/m 20,9 km/h (4 Bft)
28.10.2014 16:20 10,4 C 8,9 C 80 % 1016,5 hPa 0,0 l/m 0 min 0 min 45 W/m 23,0 km/h (4 Bft)
28.10.2014 16:22 10,4 C 8,9 C 80 % 1016,5 hPa 0,0 l/m 0 min 0 min 42 W/m 23,0 km/h (4 Bft)
28.10.2014 16:24 10,3 C 8,9 C 80 % 1016,5 hPa 0,0 l/m 0 min 0 min 40 W/m 14,6 km/h (3 Bft)
28.10.2014 16:26 10,3 C 8,3 C 80 % 1016,5 hPa 0,0 l/m 0 min 0 min 38 W/m 18,8 km/h (3 Bft)
28.10.2014 16:28 10,3 C 8,3 C 80 % 1016,5 hPa 0,0 l/m 0 min 0 min 36 W/m 20,9 km/h (4 Bft)
28.10.2014 16:30 10,2 C 8,3 C 80 % 1016,6 hPa 0,0 l/m 0 min 0 min 34 W/m 18,8 km/h (3 Bft)
28.10.2014 16:32 10,2 C 8,3 C 81 % 1016,6 hPa 0,0 l/m 0 min 0 min 33 W/m 16,7 km/h (3 Bft)
28.10.2014 16:34 10,2 C 8,3 C 81 % 1016,6 hPa 0,0 l/m 0 min 0 min 32 W/m 23,0 km/h (4 Bft)
28.10.2014 16:36 10,1 C 8,3 C 81 % 1016,6 hPa 0,0 l/m 0 min 0 min 30 W/m 14,6 km/h (3 Bft)
28.10.2014 16:38 10,1 C 8,3 C 81 % 1016,6 hPa 0,0 l/m 0 min 0 min 28 W/m 12,6 km/h (3 Bft)
28.10.2014 16:40 10,0 C 8,3 C 81 % 1016,5 hPa 0,0 l/m 0 min 0 min 27 W/m 20,9 km/h (4 Bft)
28.10.2014 16:42 9,9 C 8,3 C 81 % 1016,5 hPa 0,0 l/m 0 min 0 min 26 W/m 18,8 km/h (3 Bft)
28.10.2014 16:44 9,9 C 7,8 C 82 % 1016,5 hPa 0,0 l/m 0 min 0 min 25 W/m 23,0 km/h (4 Bft)
28.10.2014 16:46 9,8 C 7,8 C 82 % 1016,6 hPa 0,0 l/m 0 min 0 min 23 W/m 29,3 km/h (5 Bft)
28.10.2014 16:48 9,8 C 7,8 C 81 % 1016,5 hPa 0,0 l/m 0 min 0 min 22 W/m 20,9 km/h (4 Bft)
28.10.2014 16:50 9,7 C 7,8 C 82 % 1016,5 hPa 0,0 l/m 0 min 0 min 21 W/m 29,3 km/h (5 Bft)
28.10.2014 16:52 9,7 C 7,8 C 82 % 1016,5 hPa 0,0 l/m 0 min 0 min 21 W/m 25,1 km/h (4 Bft)
28.10.2014 16:54 9,6 C 7,8 C 82 % 1016,5 hPa 0,0 l/m 0 min 0 min 20 W/m 20,9 km/h (4 Bft)
28.10.2014 16:56 9,6 C 7,8 C 82 % 1016,5 hPa 0,0 l/m 0 min 0 min 18 W/m 23,0 km/h (4 Bft)
28.10.2014 16:58 9,5 C 7,8 C 82 % 1016,5 hPa 0,0 l/m 2 min 0 min 18 W/m 18,8 km/h (3 Bft)
28.10.2014 17:00 9,4 C 7,8 C 82 % 1016,5 hPa 0,0 l/m 2 min 0 min 18 W/m 18,8 km/h (3 Bft)
28.10.2014 17:02 9,4 C 7,8 C 82 % 1016,4 hPa 0,0 l/m 2 min 0 min 16 W/m 18,8 km/h (3 Bft)
28.10.2014 17:04 9,4 C 7,2 C 82 % 1016,5 hPa 0,0 l/m 0 min 0 min 13 W/m 20,9 km/h (4 Bft)
28.10.2014 17:06 9,3 C 7,2 C 83 % 1016,5 hPa 0,0 l/m 0 min 0 min 11 W/m 23,0 km/h (4 Bft)
28.10.2014 17:08 9,3 C 7,2 C 83 % 1016,5 hPa 0,0 l/m 0 min 0 min 9 W/m 20,9 km/h (4 Bft)
28.10.2014 17:10 9,2 C 7,2 C 83 % 1016,5 hPa 0,0 l/m 0 min 0 min 8 W/m 18,8 km/h (3 Bft)
28.10.2014 17:12 9,2 C 7,2 C 83 % 1016,6 hPa 0,0 l/m 0 min 0 min 6 W/m 16,7 km/h (3 Bft)
28.10.2014 17:14 9,1 C 7,2 C 83 % 1016,6 hPa 0,0 l/m 0 min 0 min 5 W/m 20,9 km/h (4 Bft)
28.10.2014 17:16 9,1 C 7,2 C 83 % 1016,5 hPa 0,0 l/m 0 min 0 min 5 W/m 25,1 km/h (4 Bft)
28.10.2014 17:18 9,0 C 7,2 C 84 % 1016,5 hPa 0,0 l/m 0 min 0 min 5 W/m 23,0 km/h (4 Bft)
28.10.2014 17:20 8,9 C 7,2 C 84 % 1016,5 hPa 0,0 l/m 0 min 0 min 3 W/m 18,8 km/h (3 Bft)
28.10.2014 17:22 8,9 C 7,2 C 84 % 1016,5 hPa 0,0 l/m 0 min 0 min 0 W/m 23,0 km/h (4 Bft)
28.10.2014 17:24 8,9 C 7,2 C 84 % 1016,5 hPa 0,0 l/m 0 min 0 min 2 W/m 25,1 km/h (4 Bft)
28.10.2014 17:26 8,8 C 7,2 C 84 % 1016,5 hPa 0,0 l/m 0 min 0 min 5 W/m 23,0 km/h (4 Bft)
28.10.2014 17:28 8,8 C 7,2 C 84 % 1016,6 hPa 0,0 l/m 0 min 0 min 5 W/m 23,0 km/h (4 Bft)
28.10.2014 17:30 8,7 C 7,2 C 84 % 1016,6 hPa 0,0 l/m 0 min 0 min 5 W/m 23,0 km/h (4 Bft)
28.10.2014 17:32 8,7 C 7,2 C 84 % 1016,5 hPa 0,0 l/m 0 min 0 min 0 W/m 18,8 km/h (3 Bft)
28.10.2014 17:34 8,7 C 7,2 C 84 % 1016,6 hPa 0,0 l/m 0 min 0 min 0 W/m 25,1 km/h (4 Bft)
28.10.2014 17:36 8,6 C 6,7 C 85 % 1016,5 hPa 0,0 l/m 0 min 0 min 0 W/m 27,2 km/h (4 Bft)
28.10.2014 17:38 8,6 C 6,7 C 85 % 1016,6 hPa 0,0 l/m 0 min 0 min 0 W/m 25,1 km/h (4 Bft)
28.10.2014 17:40 8,5 C 6,7 C 85 % 1016,5 hPa 0,0 l/m 0 min 0 min 0 W/m 16,7 km/h (3 Bft)
28.10.2014 17:42 8,5 C 6,7 C 85 % 1016,6 hPa 0,0 l/m 0 min 0 min 0 W/m 23,0 km/h (4 Bft)
28.10.2014 17:44 8,4 C 6,7 C 85 % 1016,6 hPa 0,0 l/m 0 min 0 min 0 W/m 20,9 km/h (4 Bft)
28.10.2014 17:46 8,4 C 6,7 C 85 % 1016,6 hPa 0,0 l/m 0 min 0 min 0 W/m 20,9 km/h (4 Bft)
28.10.2014 17:48 8,4 C 6,7 C 85 % 1016,6 hPa 0,0 l/m 0 min 0 min 0 W/m 25,1 km/h (4 Bft)
28.10.2014 17:50 8,3 C 6,7 C 85 % 1016,6 hPa 0,0 l/m 0 min 0 min 0 W/m 25,1 km/h (4 Bft)
28.10.2014 17:52 8,3 C 6,7 C 85 % 1016,6 hPa 0,0 l/m 0 min 0 min 0 W/m 18,8 km/h (3 Bft)
28.10.2014 17:54 8,3 C 6,7 C 85 % 1016,6 hPa 0,0 l/m 0 min 0 min 0 W/m 23,0 km/h (4 Bft)
28.10.2014 17:56 8,2 C 6,7 C 86 % 1016,6 hPa 0,0 l/m 0 min 0 min 0 W/m 18,8 km/h (3 Bft)
28.10.2014 17:58 8,2 C 6,7 C 86 % 1016,6 hPa 0,0 l/m 0 min 0 min 0 W/m 25,1 km/h (4 Bft)
28.10.2014 18:00 8,2 C 6,7 C 86 % 1016,6 hPa 0,0 l/m 0 min 0 min 0 W/m 20,9 km/h (4 Bft)
28.10.2014 18:02 8,1 C 6,7 C 86 % 1016,6 hPa 0,0 l/m 0 min 0 min 0 W/m 23,0 km/h (4 Bft)
28.10.2014 18:05 8,1 C 6,7 C 86 % 1016,6 hPa 0,0 l/m 0 min 0 min 0 W/m 20,9 km/h (4 Bft)
28.10.2014 18:06 8,0 C 6,7 C 86 % 1016,6 hPa 0,0 l/m 0 min 0 min 0 W/m 20,9 km/h (4 Bft)
28.10.2014 18:08 8,0 C 6,1 C 86 % 1016,7 hPa 0,0 l/m 0 min 0 min 0 W/m 29,3 km/h (5 Bft)
28.10.2014 18:10 7,9 C 6,1 C 86 % 1016,7 hPa 0,0 l/m 0 min 0 min 0 W/m 23,0 km/h (4 Bft)
28.10.2014 18:12 7,9 C 6,1 C 86 % 1016,7 hPa 0,0 l/m 0 min 0 min 0 W/m 20,9 km/h (4 Bft)
28.10.2014 18:14 7,9 C 6,1 C 86 % 1016,7 hPa 0,0 l/m 0 min 0 min 0 W/m 16,7 km/h (3 Bft)
28.10.2014 18:16 7,8 C 6,1 C 86 % 1016,6 hPa 0,0 l/m 0 min 0 min 0 W/m 18,8 km/h (3 Bft)
28.10.2014 18:18 7,8 C 6,1 C 86 % 1016,7 hPa 0,0 l/m 0 min 0 min 0 W/m 27,2 km/h (4 Bft)
28.10.2014 18:20 7,8 C 6,1 C 86 % 1016,6 hPa 0,0 l/m 0 min 0 min 0 W/m 23,0 km/h (4 Bft)
28.10.2014 18:22 7,7 C 6,1 C 86 % 1016,6 hPa 0,0 l/m 0 min 0 min 0 W/m 25,1 km/h (4 Bft)
28.10.2014 18:24 7,7 C 6,1 C 87 % 1016,6 hPa 0,0 l/m 0 min 0 min 0 W/m 20,9 km/h (4 Bft)
28.10.2014 18:26 7,7 C 6,1 C 87 % 1016,6 hPa 0,0 l/m 0 min 0 min 0 W/m 18,8 km/h (3 Bft)
28.10.2014 18:28 7,7 C 6,1 C 87 % 1016,6 hPa 0,0 l/m 0 min 0 min 0 W/m 20,9 km/h (4 Bft)
28.10.2014 18:30 7,6 C 6,1 C 87 % 1016,6 hPa 0,0 l/m 0 min 0 min 0 W/m 16,7 km/h (3 Bft)
28.10.2014 18:32 7,6 C 6,1 C 87 % 1016,5 hPa 0,0 l/m 0 min 0 min 0 W/m 20,9 km/h (4 Bft)
28.10.2014 18:34 7,6 C 6,1 C 87 % 1016,5 hPa 0,0 l/m 0 min 0 min 0 W/m 16,7 km/h (3 Bft)
28.10.2014 18:36 7,5 C 6,1 C 87 % 1016,6 hPa 0,0 l/m 0 min 0 min 0 W/m 16,7 km/h (3 Bft)
28.10.2014 18:38 7,5 C 6,1 C 87 % 1016,5 hPa 0,0 l/m 0 min 0 min 0 W/m 20,9 km/h (4 Bft)
28.10.2014 18:40 7,4 C 6,1 C 87 % 1016,5 hPa 0,0 l/m 0 min 0 min 0 W/m 18,8 km/h (3 Bft)
28.10.2014 18:42 7,4 C 6,1 C 88 % 1016,5 hPa 0,0 l/m 0 min 0 min 0 W/m 29,3 km/h (5 Bft)
28.10.2014 18:44 7,4 C 6,1 C 88 % 1016,5 hPa 0,0 l/m 0 min 0 min 0 W/m 16,7 km/h (3 Bft)
28.10.2014 18:46 7,4 C 6,1 C 88 % 1016,6 hPa 0,0 l/m 0 min 0 min 0 W/m 16,7 km/h (3 Bft)
28.10.2014 18:48 7,3 C 5,6 C 88 % 1016,6 hPa 0,0 l/m 0 min 0 min 0 W/m 16,7 km/h (3 Bft)
28.10.2014 18:50 7,3 C 5,6 C 88 % 1016,6 hPa 0,0 l/m 0 min 0 min 0 W/m 18,8 km/h (3 Bft)
28.10.2014 18:52 7,3 C 5,6 C 88 % 1016,6 hPa 0,0 l/m 0 min 0 min 0 W/m 20,9 km/h (4 Bft)
28.10.2014 18:54 7,3 C 5,6 C 88 % 1016,6 hPa 0,0 l/m 0 min 0 min 0 W/m 16,7 km/h (3 Bft)
28.10.2014 18:56 7,2 C 5,6 C 88 % 1016,6 hPa 0,0 l/m 0 min 0 min 0 W/m 23,0 km/h (4 Bft)
28.10.2014 18:58 7,2 C 5,6 C 88 % 1016,6 hPa 0,0 l/m 0 min 0 min 0 W/m 20,9 km/h (4 Bft)
28.10.2014 19:00 7,2 C 5,6 C 88 % 1016,6 hPa 0,0 l/m 0 min 0 min 0 W/m 20,9 km/h (4 Bft)
28.10.2014 19:02 7,2 C 5,6 C 88 % 1016,6 hPa 0,0 l/m 0 min 0 min 0 W/m 20,9 km/h (4 Bft)
28.10.2014 19:04 7,2 C 5,6 C 88 % 1016,6 hPa 0,0 l/m 0 min 0 min 0 W/m 20,9 km/h (4 Bft)
28.10.2014 19:06 7,1 C 5,6 C 88 % 1016,6 hPa 0,0 l/m 0 min 0 min 0 W/m 18,8 km/h (3 Bft)
28.10.2014 19:08 7,1 C 5,6 C 88 % 1016,5 hPa 0,0 l/m 0 min 0 min 0 W/m 27,2 km/h (4 Bft)
28.10.2014 19:10 7,1 C 5,6 C 88 % 1016,6 hPa 0,0 l/m 0 min 0 min 0 W/m 23,0 km/h (4 Bft)
28.10.2014 19:12 7,1 C 5,6 C 89 % 1016,6 hPa 0,0 l/m 0 min 0 min 0 W/m 27,2 km/h (4 Bft)
28.10.2014 19:14 7,0 C 5,6 C 89 % 1016,6 hPa 0,0 l/m 0 min 0 min 0 W/m 14,6 km/h (3 Bft)
28.10.2014 19:16 7,0 C 5,6 C 89 % 1016,6 hPa 0,0 l/m 0 min 0 min 0 W/m 14,6 km/h (3 Bft)
28.10.2014 19:18 7,0 C 5,6 C 89 % 1016,7 hPa 0,0 l/m 0 min 0 min 0 W/m 20,9 km/h (4 Bft)
28.10.2014 19:20 6,9 C 5,6 C 89 % 1016,6 hPa 0,0 l/m 0 min 0 min 0 W/m 16,7 km/h (3 Bft)
28.10.2014 19:22 6,9 C 5,6 C 89 % 1016,7 hPa 0,0 l/m 0 min 0 min 0 W/m 20,9 km/h (4 Bft)
28.10.2014 19:24 6,9 C 5,6 C 89 % 1016,7 hPa 0,0 l/m 0 min 0 min 0 W/m 20,9 km/h (4 Bft)
28.10.2014 19:26 6,9 C 5,6 C 89 % 1016,6 hPa 0,0 l/m 0 min 0 min 0 W/m 18,8 km/h (3 Bft)
28.10.2014 19:28 6,8 C 5,6 C 89 % 1016,6 hPa 0,0 l/m 0 min 0 min 0 W/m 25,1 km/h (4 Bft)
28.10.2014 19:30 6,8 C 5,6 C 89 % 1016,6 hPa 0,0 l/m 0 min 0 min 0 W/m 23,0 km/h (4 Bft)
28.10.2014 19:32 6,8 C 5,6 C 89 % 1016,7 hPa 0,0 l/m 0 min 0 min 0 W/m 16,7 km/h (3 Bft)
28.10.2014 19:34 6,8 C 5,6 C 89 % 1016,7 hPa 0,0 l/m 0 min 0 min 0 W/m 18,8 km/h (3 Bft)
28.10.2014 19:36 6,8 C 5,6 C 89 % 1016,7 hPa 0,0 l/m 0 min 0 min 0 W/m 18,8 km/h (3 Bft)
28.10.2014 19:38 6,8 C 5,0 C 90 % 1016,7 hPa 0,0 l/m 0 min 0 min 0 W/m 18,8 km/h (3 Bft)
28.10.2014 19:40 6,7 C 5,0 C 90 % 1016,7 hPa 0,0 l/m 0 min 0 min 0 W/m 16,7 km/h (3 Bft)
28.10.2014 19:42 6,7 C 5,0 C 90 % 1016,7 hPa 0,0 l/m 0 min 0 min 0 W/m 16,7 km/h (3 Bft)
28.10.2014 19:44 6,7 C 5,0 C 90 % 1016,7 hPa 0,0 l/m 0 min 0 min 0 W/m 14,6 km/h (3 Bft)
28.10.2014 19:46 6,7 C 5,0 C 90 % 1016,7 hPa 0,0 l/m 0 min 0 min 0 W/m 16,7 km/h (3 Bft)
28.10.2014 19:48 6,7 C 5,0 C 90 % 1016,7 hPa 0,0 l/m 0 min 0 min 0 W/m 18,8 km/h (3 Bft)
28.10.2014 19:50 6,6 C 5,0 C 90 % 1016,6 hPa 0,0 l/m 0 min 0 min 0 W/m 20,9 km/h (4 Bft)
28.10.2014 19:52 6,6 C 5,0 C 90 % 1016,7 hPa 0,0 l/m 0 min 0 min 0 W/m 16,7 km/h (3 Bft)
28.10.2014 19:54 6,6 C 5,0 C 90 % 1016,6 hPa 0,0 l/m 0 min 0 min 0 W/m 16,7 km/h (3 Bft)
28.10.2014 19:56 6,6 C 5,0 C 90 % 1016,6 hPa 0,0 l/m 0 min 0 min 0 W/m 18,8 km/h (3 Bft)
28.10.2014 19:58 6,6 C 5,0 C 90 % 1016,6 hPa 0,0 l/m 0 min 0 min 0 W/m 18,8 km/h (3 Bft)
28.10.2014 20:00 6,6 C 5,0 C 90 % 1016,6 hPa 0,0 l/m 0 min 0 min 0 W/m 16,7 km/h (3 Bft)
28.10.2014 20:02 6,5 C 5,0 C 90 % 1016,6 hPa 0,0 l/m 0 min 0 min 0 W/m 12,6 km/h (3 Bft)
28.10.2014 20:04 6,5 C 5,0 C 90 % 1016,6 hPa 0,0 l/m 0 min 0 min 0 W/m 16,7 km/h (3 Bft)
28.10.2014 20:06 6,4 C 5,0 C 90 % 1016,6 hPa 0,0 l/m 0 min 0 min 0 W/m 20,9 km/h (4 Bft)
28.10.2014 20:08 6,4 C 5,0 C 90 % 1016,6 hPa 0,0 l/m 0 min 0 min 0 W/m 18,8 km/h (3 Bft)
28.10.2014 20:10 6,4 C 5,0 C 90 % 1016,6 hPa 0,0 l/m 0 min 0 min 0 W/m 10,5 km/h (2 Bft)
28.10.2014 20:12 6,4 C 5,0 C 90 % 1016,6 hPa 0,0 l/m 0 min 0 min 0 W/m 16,7 km/h (3 Bft)
28.10.2014 20:14 6,4 C 5,0 C 90 % 1016,6 hPa 0,0 l/m 0 min 0 min 0 W/m 14,6 km/h (3 Bft)
28.10.2014 20:16 6,4 C 5,0 C 90 % 1016,7 hPa 0,0 l/m 0 min 0 min 0 W/m 12,6 km/h (3 Bft)
28.10.2014 20:18 6,4 C 5,0 C 90 % 1016,6 hPa 0,0 l/m 0 min 0 min 0 W/m 14,6 km/h (3 Bft)
28.10.2014 20:20 6,4 C 5,0 C 90 % 1016,6 hPa 0,0 l/m 0 min 0 min 0 W/m 16,7 km/h (3 Bft)
28.10.2014 20:22 6,3 C 5,0 C 90 % 1016,6 hPa 0,0 l/m 0 min 0 min 0 W/m 14,6 km/h (3 Bft)
28.10.2014 20:24 6,3 C 5,0 C 90 % 1016,6 hPa 0,0 l/m 0 min 0 min 0 W/m 14,6 km/h (3 Bft)
28.10.2014 20:26 6,3 C 5,0 C 91 % 1016,6 hPa 0,0 l/m 0 min 0 min 0 W/m 12,6 km/h (3 Bft)
28.10.2014 20:28 6,3 C 5,0 C 91 % 1016,6 hPa 0,0 l/m 0 min 0 min 0 W/m 16,7 km/h (3 Bft)
28.10.2014 20:30 6,2 C 5,0 C 91 % 1016,6 hPa 0,0 l/m 0 min 0 min 0 W/m 14,6 km/h (3 Bft)
28.10.2014 20:32 6,2 C 4,4 C 91 % 1016,6 hPa 0,0 l/m 0 min 0 min 0 W/m 16,7 km/h (3 Bft)
28.10.2014 20:34 6,2 C 4,4 C 91 % 1016,6 hPa 0,0 l/m 0 min 0 min 0 W/m 12,6 km/h (3 Bft)
28.10.2014 20:36 6,2 C 4,4 C 91 % 1016,7 hPa 0,0 l/m 0 min 0 min 0 W/m 14,6 km/h (3 Bft)
28.10.2014 20:38 6,2 C 4,4 C 91 % 1016,8 hPa 0,0 l/m 0 min 0 min 0 W/m 12,6 km/h (3 Bft)
28.10.2014 20:40 6,1 C 4,4 C 91 % 1016,8 hPa 0,0 l/m 0 min 0 min 0 W/m 10,5 km/h (2 Bft)
28.10.2014 20:42 6,1 C 4,4 C 91 % 1016,8 hPa 0,0 l/m 0 min 0 min 0 W/m 8,4 km/h (2 Bft)
28.10.2014 20:44 6,1 C 4,4 C 91 % 1016,8 hPa 0,0 l/m 0 min 0 min 0 W/m 6,3 km/h (2 Bft)
28.10.2014 20:46 6,1 C 4,4 C 91 % 1016,9 hPa 0,0 l/m 0 min 0 min 0 W/m 6,3 km/h (2 Bft)
28.10.2014 20:48 6,1 C 4,4 C 91 % 1016,9 hPa 0,0 l/m 0 min 0 min 0 W/m 8,4 km/h (2 Bft)
28.10.2014 20:50 6,1 C 4,4 C 91 % 1016,8 hPa 0,0 l/m 0 min 0 min 0 W/m 8,4 km/h (2 Bft)
28.10.2014 20:52 6,0 C 4,4 C 91 % 1016,8 hPa 0,0 l/m 0 min 0 min 0 W/m 8,4 km/h (2 Bft)
28.10.2014 20:54 6,0 C 4,4 C 91 % 1016,8 hPa 0,0 l/m 0 min 0 min 0 W/m 16,7 km/h (3 Bft)
28.10.2014 20:56 6,0 C 4,4 C 91 % 1016,9 hPa 0,0 l/m 0 min 0 min 0 W/m 16,7 km/h (3 Bft)
28.10.2014 20:58 5,9 C 4,4 C 91 % 1016,9 hPa 0,0 l/m 0 min 0 min 0 W/m 10,5 km/h (2 Bft)
28.10.2014 21:00 5,9 C 4,4 C 91 % 1016,9 hPa 0,0 l/m 0 min 0 min 0 W/m 6,3 km/h (2 Bft)
28.10.2014 21:02 5,9 C 4,4 C 91 % 1016,9 hPa 0,0 l/m 0 min 0 min 0 W/m 6,3 km/h (2 Bft)
28.10.2014 21:04 5,9 C 4,4 C 91 % 1016,9 hPa 0,0 l/m 0 min 0 min 0 W/m 4,2 km/h (1 Bft)
28.10.2014 21:06 5,9 C 4,4 C 91 % 1016,9 hPa 0,0 l/m 0 min 0 min 0 W/m 6,3 km/h (2 Bft)
28.10.2014 21:08 5,8 C 3,9 C 91 % 1016,9 hPa 0,0 l/m 0 min 0 min 0 W/m 6,3 km/h (2 Bft)
28.10.2014 21:10 5,8 C 3,9 C 91 % 1016,9 hPa 0,0 l/m 0 min 0 min 0 W/m 8,4 km/h (2 Bft)
28.10.2014 21:12 5,8 C 3,9 C 91 % 1016,8 hPa 0,0 l/m 0 min 0 min 0 W/m 10,5 km/h (2 Bft)
28.10.2014 21:14 5,8 C 3,9 C 91 % 1016,8 hPa 0,0 l/m 0 min 0 min 0 W/m 8,4 km/h (2 Bft)
28.10.2014 21:16 5,8 C 3,9 C 91 % 1016,7 hPa 0,0 l/m 0 min 0 min 0 W/m 6,3 km/h (2 Bft)
28.10.2014 21:18 5,7 C 3,9 C 92 % 1016,8 hPa 0,0 l/m 0 min 0 min 0 W/m 6,3 km/h (2 Bft)
28.10.2014 21:20 5,7 C 3,9 C 92 % 1016,8 hPa 0,0 l/m 0 min 0 min 0 W/m 6,3 km/h (2 Bft)
28.10.2014 21:22 5,7 C 3,9 C 92 % 1016,8 hPa 0,0 l/m 0 min 0 min 0 W/m 6,3 km/h (2 Bft)
28.10.2014 21:24 5,7 C 3,9 C 92 % 1016,7 hPa 0,0 l/m 0 min 0 min 0 W/m 6,3 km/h (2 Bft)
28.10.2014 21:26 5,6 C 3,9 C 92 % 1016,8 hPa 0,0 l/m 0 min 0 min 0 W/m 4,2 km/h (1 Bft)
28.10.2014 21:28 5,6 C 3,9 C 92 % 1016,8 hPa 0,0 l/m 0 min 0 min 0 W/m 6,3 km/h (2 Bft)
28.10.2014 21:30 5,6 C 3,9 C 92 % 1016,8 hPa 0,0 l/m 0 min 0 min 0 W/m 6,3 km/h (2 Bft)
28.10.2014 21:32 5,6 C 3,9 C 92 % 1016,8 hPa 0,0 l/m 0 min 0 min 0 W/m 6,3 km/h (2 Bft)
28.10.2014 21:34 5,6 C 3,9 C 92 % 1016,8 hPa 0,0 l/m 0 min 0 min 0 W/m 4,2 km/h (1 Bft)
28.10.2014 21:36 5,5 C 3,9 C 92 % 1016,8 hPa 0,0 l/m 0 min 0 min 0 W/m 6,3 km/h (2 Bft)
28.10.2014 21:38 5,5 C 3,9 C 92 % 1016,8 hPa 0,0 l/m 0 min 0 min 0 W/m 6,3 km/h (2 Bft)
28.10.2014 21:40 5,4 C 3,9 C 92 % 1016,8 hPa 0,0 l/m 0 min 0 min 0 W/m 6,3 km/h (2 Bft)
28.10.2014 21:42 5,4 C 3,3 C 92 % 1016,7 hPa 0,0 l/m 0 min 0 min 0 W/m 6,3 km/h (2 Bft)
28.10.2014 21:44 5,4 C 3,3 C 92 % 1016,7 hPa 0,0 l/m 0 min 0 min 0 W/m 6,3 km/h (2 Bft)
28.10.2014 21:46 5,4 C 3,3 C 92 % 1016,8 hPa 0,0 l/m 0 min 0 min 0 W/m 4,2 km/h (1 Bft)
28.10.2014 21:48 5,4 C 3,3 C 92 % 1016,8 hPa 0,0 l/m 0 min 0 min 0 W/m 4,2 km/h (1 Bft)
28.10.2014 21:50 5,3 C 3,3 C 92 % 1016,7 hPa 0,0 l/m 0 min 0 min 0 W/m 6,3 km/h (2 Bft)
28.10.2014 21:52 5,3 C 3,3 C 92 % 1016,8 hPa 0,0 l/m 0 min 0 min 0 W/m 6,3 km/h (2 Bft)
28.10.2014 21:54 5,3 C 3,3 C 92 % 1016,7 hPa 0,0 l/m 0 min 0 min 0 W/m 6,3 km/h (2 Bft)
28.10.2014 21:56 5,3 C 3,3 C 92 % 1016,7 hPa 0,0 l/m 0 min 0 min 0 W/m 6,3 km/h (2 Bft)
28.10.2014 21:58 5,2 C 3,3 C 92 % 1016,7 hPa 0,0 l/m 0 min 0 min 0 W/m 6,3 km/h (2 Bft)
28.10.2014 22:00 5,2 C 3,3 C 92 % 1016,7 hPa 0,0 l/m 0 min 0 min 0 W/m 6,3 km/h (2 Bft)
28.10.2014 22:02 5,2 C 3,3 C 92 % 1016,6 hPa 0,0 l/m 0 min 0 min 0 W/m 8,4 km/h (2 Bft)
28.10.2014 22:04 5,2 C 3,3 C 92 % 1016,7 hPa 0,0 l/m 0 min 0 min 0 W/m 8,4 km/h (2 Bft)
28.10.2014 22:06 5,2 C 3,3 C 92 % 1016,7 hPa 0,0 l/m 0 min 0 min 0 W/m 8,4 km/h (2 Bft)
28.10.2014 22:08 5,1 C 3,3 C 92 % 1016,6 hPa 0,0 l/m 0 min 0 min 0 W/m 8,4 km/h (2 Bft)
28.10.2014 22:10 5,1 C 3,3 C 92 % 1016,6 hPa 0,0 l/m 0 min 0 min 0 W/m 8,4 km/h (2 Bft)
28.10.2014 22:12 5,1 C 3,3 C 92 % 1016,6 hPa 0,0 l/m 0 min 0 min 0 W/m 8,4 km/h (2 Bft)
28.10.2014 22:14 5,1 C 3,3 C 92 % 1016,6 hPa 0,0 l/m 0 min 0 min 0 W/m 8,4 km/h (2 Bft)
28.10.2014 22:16 5,1 C 3,3 C 92 % 1016,6 hPa 0,0 l/m 0 min 0 min 0 W/m 6,3 km/h (2 Bft)
28.10.2014 22:18 5,0 C 3,3 C 92 % 1016,5 hPa 0,0 l/m 0 min 0 min 0 W/m 8,4 km/h (2 Bft)
28.10.2014 22:20 5,0 C 3,3 C 92 % 1016,5 hPa 0,0 l/m 0 min 0 min 0 W/m 8,4 km/h (2 Bft)
28.10.2014 22:22 5,0 C 3,3 C 93 % 1016,5 hPa 0,0 l/m 0 min 0 min 0 W/m 8,4 km/h (2 Bft)
28.10.2014 22:24 4,9 C 3,3 C 93 % 1016,5 hPa 0,0 l/m 0 min 0 min 0 W/m 8,4 km/h (2 Bft)
28.10.2014 22:26 4,9 C 3,3 C 93 % 1016,5 hPa 0,0 l/m 0 min 0 min 0 W/m 8,4 km/h (2 Bft)
28.10.2014 22:28 4,9 C 3,3 C 93 % 1016,5 hPa 0,0 l/m 0 min 0 min 0 W/m 6,3 km/h (2 Bft)
28.10.2014 22:30 4,9 C 3,3 C 93 % 1016,4 hPa 0,0 l/m 0 min 0 min 0 W/m 4,2 km/h (1 Bft)
28.10.2014 22:32 4,9 C 3,3 C 93 % 1016,4 hPa 0,0 l/m 0 min 0 min 0 W/m 6,3 km/h (2 Bft)
28.10.2014 22:34 4,9 C 3,3 C 93 % 1016,4 hPa 0,0 l/m 0 min 0 min 0 W/m 6,3 km/h (2 Bft)
28.10.2014 22:36 4,9 C 3,3 C 93 % 1016,5 hPa 0,0 l/m 0 min 0 min 0 W/m 4,2 km/h (1 Bft)
28.10.2014 22:38 4,8 C 3,3 C 93 % 1016,4 hPa 0,0 l/m 0 min 0 min 0 W/m 6,3 km/h (2 Bft)
28.10.2014 22:40 4,8 C 3,3 C 93 % 1016,4 hPa 0,0 l/m 0 min 0 min 0 W/m 6,3 km/h (2 Bft)
28.10.2014 22:42 4,8 C 3,3 C 93 % 1016,4 hPa 0,0 l/m 0 min 0 min 0 W/m 4,2 km/h (1 Bft)
28.10.2014 22:44 4,8 C 3,3 C 93 % 1016,3 hPa 0,0 l/m 0 min 0 min 0 W/m 6,3 km/h (2 Bft)
28.10.2014 22:46 4,7 C 3,3 C 93 % 1016,3 hPa 0,0 l/m 0 min 0 min 0 W/m 6,3 km/h (2 Bft)
28.10.2014 22:48 4,7 C 3,3 C 93 % 1016,3 hPa 0,0 l/m 0 min 0 min 0 W/m 8,4 km/h (2 Bft)
28.10.2014 22:50 4,7 C 2,8 C 93 % 1016,3 hPa 0,0 l/m 0 min 0 min 0 W/m 6,3 km/h (2 Bft)
28.10.2014 22:52 4,7 C 2,8 C 93 % 1016,3 hPa 0,0 l/m 0 min 0 min 0 W/m 6,3 km/h (2 Bft)
28.10.2014 22:54 4,7 C 2,8 C 93 % 1016,3 hPa 0,0 l/m 0 min 0 min 0 W/m 6,3 km/h (2 Bft)
28.10.2014 22:56 4,7 C 2,8 C 93 % 1016,3 hPa 0,0 l/m 0 min 0 min 0 W/m 8,4 km/h (2 Bft)
28.10.2014 22:58 4,6 C 2,8 C 93 % 1016,2 hPa 0,0 l/m 0 min 0 min 0 W/m 10,5 km/h (2 Bft)
28.10.2014 23:00 4,6 C 2,8 C 93 % 1016,2 hPa 0,0 l/m 0 min 0 min 0 W/m 6,3 km/h (2 Bft)
28.10.2014 23:02 4,6 C 2,8 C 93 % 1016,1 hPa 0,0 l/m 0 min 0 min 0 W/m 8,4 km/h (2 Bft)
28.10.2014 23:04 4,6 C 2,8 C 93 % 1016,2 hPa 0,0 l/m 0 min 0 min 0 W/m 6,3 km/h (2 Bft)
28.10.2014 23:06 4,6 C 2,8 C 93 % 1016,1 hPa 0,0 l/m 0 min 0 min 0 W/m 4,2 km/h (1 Bft)
28.10.2014 23:08 4,5 C 2,8 C 93 % 1016,2 hPa 0,0 l/m 0 min 0 min 0 W/m 8,4 km/h (2 Bft)
28.10.2014 23:10 4,5 C 2,8 C 93 % 1016,1 hPa 0,0 l/m 0 min 0 min 0 W/m 12,6 km/h (3 Bft)
28.10.2014 23:12 4,5 C 3,3 C 93 % 1016,1 hPa 0,0 l/m 0 min 0 min 0 W/m 10,5 km/h (2 Bft)
28.10.2014 23:14 4,5 C 3,3 C 93 % 1016,1 hPa 0,0 l/m 0 min 0 min 0 W/m 8,4 km/h (2 Bft)
28.10.2014 23:16 4,5 C 3,3 C 93 % 1016,1 hPa 0,0 l/m 0 min 0 min 0 W/m 8,4 km/h (2 Bft)
28.10.2014 23:18 4,4 C 3,3 C 93 % 1016,0 hPa 0,0 l/m 0 min 0 min 0 W/m 6,3 km/h (2 Bft)
28.10.2014 23:20 4,4 C 2,8 C 94 % 1016,1 hPa 0,0 l/m 0 min 0 min 0 W/m 8,4 km/h (2 Bft)
28.10.2014 23:22 4,4 C 3,3 C 94 % 1016,1 hPa 0,0 l/m 0 min 0 min 0 W/m 6,3 km/h (2 Bft)
28.10.2014 23:24 4,4 C 3,3 C 94 % 1016,1 hPa 0,0 l/m 0 min 0 min 0 W/m 6,3 km/h (2 Bft)
28.10.2014 23:26 4,4 C 3,3 C 94 % 1016,1 hPa 0,0 l/m 0 min 0 min 0 W/m 10,5 km/h (2 Bft)
28.10.2014 23:28 4,4 C 2,8 C 94 % 1016,1 hPa 0,0 l/m 0 min 0 min 0 W/m 8,4 km/h (2 Bft)
28.10.2014 23:30 4,4 C 2,8 C 94 % 1016,1 hPa 0,0 l/m 0 min 0 min 0 W/m 8,4 km/h (2 Bft)
28.10.2014 23:32 4,4 C 2,8 C 94 % 1016,1 hPa 0,0 l/m 0 min 0 min 0 W/m 8,4 km/h (2 Bft)
28.10.2014 23:34 4,4 C 2,8 C 94 % 1016,1 hPa 0,0 l/m 0 min 0 min 0 W/m 10,5 km/h (2 Bft)
28.10.2014 23:36 4,4 C 2,8 C 94 % 1016,1 hPa 0,0 l/m 0 min 0 min 0 W/m 8,4 km/h (2 Bft)
28.10.2014 23:38 4,4 C 2,8 C 94 % 1016,1 hPa 0,0 l/m 0 min 0 min 0 W/m 10,5 km/h (2 Bft)
28.10.2014 23:40 4,4 C 3,3 C 94 % 1016,1 hPa 0,0 l/m 0 min 0 min 0 W/m 8,4 km/h (2 Bft)
28.10.2014 23:42 4,3 C 2,8 C 94 % 1016,0 hPa 0,0 l/m 0 min 0 min 0 W/m 10,5 km/h (2 Bft)
28.10.2014 23:44 4,3 C 3,3 C 94 % 1015,9 hPa 0,0 l/m 0 min 0 min 0 W/m 10,5 km/h (2 Bft)
28.10.2014 23:46 4,3 C 3,3 C 94 % 1015,9 hPa 0,0 l/m 0 min 0 min 0 W/m 12,6 km/h (3 Bft)
28.10.2014 23:48 4,3 C 3,3 C 94 % 1016,0 hPa 0,0 l/m 0 min 0 min 0 W/m 10,5 km/h (2 Bft)
28.10.2014 23:50 4,3 C 3,3 C 94 % 1015,9 hPa 0,0 l/m 0 min 0 min 0 W/m 12,6 km/h (3 Bft)
28.10.2014 23:52 4,3 C 3,3 C 94 % 1015,9 hPa 0,0 l/m 0 min 0 min 0 W/m 8,4 km/h (2 Bft)
28.10.2014 23:54 4,3 C 3,3 C 94 % 1015,8 hPa 0,0 l/m 0 min 0 min 0 W/m 12,6 km/h (3 Bft)
28.10.2014 23:56 4,3 C 3,3 C 94 % 1015,8 hPa 0,0 l/m 0 min 0 min 0 W/m 12,6 km/h (3 Bft)
28.10.2014 23:58 4,3 C 3,3 C 94 % 1015,8 hPa 0,0 l/m 0 min 0 min 0 W/m 10,5 km/h (2 Bft)
_ Min-Zeit 23:40 22:50 14:08 23:54 - - - - 21:04
Minimum _ 4,3 C 2,8 C 74 % 1015,8 hPa - - - - 4,2 km/h (1 Bft)
_ Max-Zeit 13:54 13:40 03:18 00:00 04:46 07:32 00:00 12:36 13:28
Maximum _ 12,7 C 11,7 C 96 % 1022,1 hPa 0,2 l/m 2 min 0 min 482 W/m 39,7 km/h
SO (6 Bft)
Durchschnitt _ 8,2 C 6,8 C 89 % 1018,7 hPa #0,2 l/m #8:13 h #0 min. 231 W/m 20,2 km/h (4 Bft)
© 2014 W. Hausmann